<?xml version="1.0" encoding="UTF-8" standalone="no" ?>
<gpx xmlns="http://www.topografix.com/GPX/1/1" xmlns:xsi="http://www.w3.org/2001/XMLSchema-instance" xsi:schemaLocation="http://www.topografix.com/GPX/1/1 http://www.topografix.com/GPX/1/1/gpx.xsd" version="1.1" creator="VisuGPX - https://www.visugpx.com">
  <metadata>
    <name>Rando le Roc Branlant</name>
    <desc><![CDATA[⛅🥾,rando facile, à faire.... ]]></desc>
  </metadata>
  <trk>
    <name><![CDATA[Rando le Roc Branlant_1]]></name>
    <trkseg>
      <trkpt lat="45.59142" lon="0.66946">
        <ele>225.6</ele>
        <time>2022-10-30T09:47:10Z</time>
      </trkpt>
      <trkpt lat="45.59142" lon="0.66944">
        <ele>225.6</ele>
        <time>2022-10-30T09:47:22Z</time>
      </trkpt>
      <trkpt lat="45.59141" lon="0.66943">
        <ele>225.6</ele>
        <time>2022-10-30T09:47:23Z</time>
      </trkpt>
      <trkpt lat="45.59137" lon="0.66937">
        <ele>225.4</ele>
        <time>2022-10-30T09:47:28Z</time>
      </trkpt>
      <trkpt lat="45.59131" lon="0.66925">
        <ele>224.6</ele>
        <time>2022-10-30T09:47:37Z</time>
      </trkpt>
      <trkpt lat="45.59131" lon="0.66923">
        <ele>224.4</ele>
        <time>2022-10-30T09:47:39Z</time>
      </trkpt>
      <trkpt lat="45.5913" lon="0.66921">
        <ele>224.4</ele>
        <time>2022-10-30T09:47:44Z</time>
      </trkpt>
      <trkpt lat="45.5913" lon="0.6692">
        <ele>224.6</ele>
        <time>2022-10-30T09:47:47Z</time>
      </trkpt>
      <trkpt lat="45.59131" lon="0.66916">
        <ele>224.6</ele>
        <time>2022-10-30T09:48:05Z</time>
      </trkpt>
      <trkpt lat="45.59127" lon="0.66909">
        <ele>224.4</ele>
        <time>2022-10-30T09:48:25Z</time>
      </trkpt>
      <trkpt lat="45.59132" lon="0.6692">
        <ele>224.2</ele>
        <time>2022-10-30T09:48:41Z</time>
      </trkpt>
      <trkpt lat="45.59133" lon="0.6692">
        <ele>223.2</ele>
        <time>2022-10-30T09:48:48Z</time>
      </trkpt>
      <trkpt lat="45.59133" lon="0.66916">
        <ele>223.2</ele>
        <time>2022-10-30T09:48:57Z</time>
      </trkpt>
      <trkpt lat="45.59131" lon="0.66915">
        <ele>224.4</ele>
        <time>2022-10-30T09:48:59Z</time>
      </trkpt>
      <trkpt lat="45.59128" lon="0.66914">
        <ele>224.4</ele>
        <time>2022-10-30T09:49:03Z</time>
      </trkpt>
      <trkpt lat="45.59127" lon="0.66911">
        <ele>224.4</ele>
        <time>2022-10-30T09:49:06Z</time>
      </trkpt>
      <trkpt lat="45.59123" lon="0.66906">
        <ele>224.6</ele>
        <time>2022-10-30T09:49:09Z</time>
      </trkpt>
      <trkpt lat="45.59108" lon="0.66902">
        <ele>223.6</ele>
        <time>2022-10-30T09:49:23Z</time>
      </trkpt>
      <trkpt lat="45.59095" lon="0.66901">
        <ele>223.6</ele>
        <time>2022-10-30T09:49:34Z</time>
      </trkpt>
      <trkpt lat="45.59079" lon="0.66905">
        <ele>223.4</ele>
        <time>2022-10-30T09:49:48Z</time>
      </trkpt>
      <trkpt lat="45.59076" lon="0.66907">
        <ele>223.4</ele>
        <time>2022-10-30T09:49:51Z</time>
      </trkpt>
      <trkpt lat="45.59072" lon="0.6691">
        <ele>223.6</ele>
        <time>2022-10-30T09:49:56Z</time>
      </trkpt>
      <trkpt lat="45.59063" lon="0.66918">
        <ele>223.4</ele>
        <time>2022-10-30T09:50:06Z</time>
      </trkpt>
      <trkpt lat="45.59063" lon="0.66918">
        <ele>223.6</ele>
        <time>2022-10-30T09:50:07Z</time>
      </trkpt>
      <trkpt lat="45.5906" lon="0.66919">
        <ele>223.6</ele>
        <time>2022-10-30T09:50:16Z</time>
      </trkpt>
      <trkpt lat="45.59053" lon="0.66922">
        <ele>223.6</ele>
        <time>2022-10-30T09:50:26Z</time>
      </trkpt>
      <trkpt lat="45.59037" lon="0.66931">
        <ele>223.6</ele>
        <time>2022-10-30T09:50:41Z</time>
      </trkpt>
      <trkpt lat="45.59021" lon="0.66939">
        <ele>223.6</ele>
        <time>2022-10-30T09:50:58Z</time>
      </trkpt>
      <trkpt lat="45.59017" lon="0.6694">
        <ele>223.4</ele>
        <time>2022-10-30T09:51:02Z</time>
      </trkpt>
      <trkpt lat="45.5901" lon="0.66942">
        <ele>223</ele>
        <time>2022-10-30T09:51:10Z</time>
      </trkpt>
      <trkpt lat="45.5901" lon="0.66943">
        <ele>222.8</ele>
        <time>2022-10-30T09:51:12Z</time>
      </trkpt>
      <trkpt lat="45.59005" lon="0.66946">
        <ele>222.6</ele>
        <time>2022-10-30T09:51:21Z</time>
      </trkpt>
      <trkpt lat="45.58995" lon="0.66951">
        <ele>222.8</ele>
        <time>2022-10-30T09:51:37Z</time>
      </trkpt>
      <trkpt lat="45.58989" lon="0.66952">
        <ele>223</ele>
        <time>2022-10-30T09:51:52Z</time>
      </trkpt>
      <trkpt lat="45.58982" lon="0.66958">
        <ele>222.8</ele>
        <time>2022-10-30T09:52:06Z</time>
      </trkpt>
      <trkpt lat="45.58975" lon="0.66964">
        <ele>223</ele>
        <time>2022-10-30T09:52:20Z</time>
      </trkpt>
      <trkpt lat="45.58971" lon="0.66967">
        <ele>223.2</ele>
        <time>2022-10-30T09:52:27Z</time>
      </trkpt>
      <trkpt lat="45.5896" lon="0.66977">
        <ele>223.4</ele>
        <time>2022-10-30T09:52:42Z</time>
      </trkpt>
      <trkpt lat="45.58963" lon="0.66984">
        <ele>223.4</ele>
        <time>2022-10-30T09:52:55Z</time>
      </trkpt>
      <trkpt lat="45.58955" lon="0.66975">
        <ele>223.6</ele>
        <time>2022-10-30T09:53:10Z</time>
      </trkpt>
      <trkpt lat="45.58954" lon="0.6697">
        <ele>223.6</ele>
        <time>2022-10-30T09:53:30Z</time>
      </trkpt>
      <trkpt lat="45.58954" lon="0.66966">
        <ele>223.4</ele>
        <time>2022-10-30T09:53:50Z</time>
      </trkpt>
      <trkpt lat="45.58954" lon="0.66971">
        <ele>223.4</ele>
        <time>2022-10-30T09:54:02Z</time>
      </trkpt>
      <trkpt lat="45.58953" lon="0.66972">
        <ele>223.6</ele>
        <time>2022-10-30T09:54:05Z</time>
      </trkpt>
      <trkpt lat="45.58949" lon="0.66976">
        <ele>223.8</ele>
        <time>2022-10-30T09:54:09Z</time>
      </trkpt>
      <trkpt lat="45.58944" lon="0.6698">
        <ele>224.2</ele>
        <time>2022-10-30T09:54:15Z</time>
      </trkpt>
      <trkpt lat="45.58939" lon="0.66982">
        <ele>224.6</ele>
        <time>2022-10-30T09:54:20Z</time>
      </trkpt>
      <trkpt lat="45.58932" lon="0.6699">
        <ele>225.2</ele>
        <time>2022-10-30T09:54:28Z</time>
      </trkpt>
      <trkpt lat="45.58926" lon="0.66995">
        <ele>225.6</ele>
        <time>2022-10-30T09:54:33Z</time>
      </trkpt>
      <trkpt lat="45.58924" lon="0.66995">
        <ele>225.8</ele>
        <time>2022-10-30T09:54:35Z</time>
      </trkpt>
      <trkpt lat="45.58915" lon="0.66997">
        <ele>225.4</ele>
        <time>2022-10-30T09:54:42Z</time>
      </trkpt>
      <trkpt lat="45.58896" lon="0.67001">
        <ele>225</ele>
        <time>2022-10-30T09:54:58Z</time>
      </trkpt>
      <trkpt lat="45.58879" lon="0.67008">
        <ele>225</ele>
        <time>2022-10-30T09:55:13Z</time>
      </trkpt>
      <trkpt lat="45.58867" lon="0.66998">
        <ele>224.6</ele>
        <time>2022-10-30T09:55:25Z</time>
      </trkpt>
      <trkpt lat="45.58867" lon="0.66997">
        <ele>224.4</ele>
        <time>2022-10-30T09:55:26Z</time>
      </trkpt>
      <trkpt lat="45.5886" lon="0.66985">
        <ele>223.4</ele>
        <time>2022-10-30T09:55:36Z</time>
      </trkpt>
      <trkpt lat="45.58859" lon="0.66983">
        <ele>223.4</ele>
        <time>2022-10-30T09:55:37Z</time>
      </trkpt>
      <trkpt lat="45.58858" lon="0.66982">
        <ele>223.2</ele>
        <time>2022-10-30T09:55:38Z</time>
      </trkpt>
      <trkpt lat="45.58845" lon="0.66964">
        <ele>222.6</ele>
        <time>2022-10-30T09:55:53Z</time>
      </trkpt>
      <trkpt lat="45.58844" lon="0.66963">
        <ele>222.4</ele>
        <time>2022-10-30T09:55:54Z</time>
      </trkpt>
      <trkpt lat="45.58843" lon="0.66963">
        <ele>222.2</ele>
        <time>2022-10-30T09:55:55Z</time>
      </trkpt>
      <trkpt lat="45.58842" lon="0.66954">
        <ele>221.8</ele>
        <time>2022-10-30T09:56:06Z</time>
      </trkpt>
      <trkpt lat="45.58842" lon="0.66952">
        <ele>221.8</ele>
        <time>2022-10-30T09:56:08Z</time>
      </trkpt>
      <trkpt lat="45.58842" lon="0.66941">
        <ele>221.2</ele>
        <time>2022-10-30T09:56:24Z</time>
      </trkpt>
      <trkpt lat="45.58843" lon="0.66937">
        <ele>221.2</ele>
        <time>2022-10-30T09:56:26Z</time>
      </trkpt>
      <trkpt lat="45.58843" lon="0.66935">
        <ele>220.8</ele>
        <time>2022-10-30T09:56:27Z</time>
      </trkpt>
      <trkpt lat="45.58841" lon="0.66923">
        <ele>220.6</ele>
        <time>2022-10-30T09:56:32Z</time>
      </trkpt>
      <trkpt lat="45.58843" lon="0.66919">
        <ele>221</ele>
        <time>2022-10-30T09:56:38Z</time>
      </trkpt>
      <trkpt lat="45.58847" lon="0.66915">
        <ele>221.4</ele>
        <time>2022-10-30T09:56:52Z</time>
      </trkpt>
      <trkpt lat="45.58844" lon="0.66914">
        <ele>221.2</ele>
        <time>2022-10-30T09:57:12Z</time>
      </trkpt>
      <trkpt lat="45.58846" lon="0.66913">
        <ele>221.2</ele>
        <time>2022-10-30T09:57:25Z</time>
      </trkpt>
      <trkpt lat="45.5885" lon="0.66905">
        <ele>221.6</ele>
        <time>2022-10-30T09:57:31Z</time>
      </trkpt>
      <trkpt lat="45.58858" lon="0.66898">
        <ele>221.2</ele>
        <time>2022-10-30T09:57:39Z</time>
      </trkpt>
      <trkpt lat="45.58862" lon="0.66892">
        <ele>221</ele>
        <time>2022-10-30T09:57:51Z</time>
      </trkpt>
      <trkpt lat="45.58863" lon="0.66891">
        <ele>221.2</ele>
        <time>2022-10-30T09:57:52Z</time>
      </trkpt>
      <trkpt lat="45.58865" lon="0.6689">
        <ele>221.2</ele>
        <time>2022-10-30T09:57:53Z</time>
      </trkpt>
      <trkpt lat="45.58867" lon="0.66888">
        <ele>221.2</ele>
        <time>2022-10-30T09:57:55Z</time>
      </trkpt>
      <trkpt lat="45.58869" lon="0.66885">
        <ele>221.2</ele>
        <time>2022-10-30T09:57:58Z</time>
      </trkpt>
      <trkpt lat="45.58871" lon="0.6688">
        <ele>221.2</ele>
        <time>2022-10-30T09:58:03Z</time>
      </trkpt>
      <trkpt lat="45.58871" lon="0.66879">
        <ele>221.2</ele>
        <time>2022-10-30T09:58:04Z</time>
      </trkpt>
      <trkpt lat="45.58872" lon="0.66878">
        <ele>221.2</ele>
        <time>2022-10-30T09:58:05Z</time>
      </trkpt>
      <trkpt lat="45.58869" lon="0.66873">
        <ele>220.8</ele>
        <time>2022-10-30T09:58:15Z</time>
      </trkpt>
      <trkpt lat="45.58865" lon="0.66876">
        <ele>220.6</ele>
        <time>2022-10-30T09:58:26Z</time>
      </trkpt>
      <trkpt lat="45.58863" lon="0.66878">
        <ele>221.6</ele>
        <time>2022-10-30T09:58:40Z</time>
      </trkpt>
      <trkpt lat="45.58862" lon="0.66886">
        <ele>221.6</ele>
        <time>2022-10-30T09:58:54Z</time>
      </trkpt>
      <trkpt lat="45.58861" lon="0.66886">
        <ele>221</ele>
        <time>2022-10-30T09:59:09Z</time>
      </trkpt>
      <trkpt lat="45.5886" lon="0.66879">
        <ele>221</ele>
        <time>2022-10-30T09:59:22Z</time>
      </trkpt>
      <trkpt lat="45.58862" lon="0.66879">
        <ele>221.6</ele>
        <time>2022-10-30T09:59:34Z</time>
      </trkpt>
      <trkpt lat="45.58859" lon="0.66882">
        <ele>220.8</ele>
        <time>2022-10-30T09:59:50Z</time>
      </trkpt>
      <trkpt lat="45.58852" lon="0.66889">
        <ele>221</ele>
        <time>2022-10-30T10:00:04Z</time>
      </trkpt>
      <trkpt lat="45.58857" lon="0.66886">
        <ele>221.4</ele>
        <time>2022-10-30T10:00:14Z</time>
      </trkpt>
      <trkpt lat="45.58857" lon="0.66876">
        <ele>221</ele>
        <time>2022-10-30T10:00:23Z</time>
      </trkpt>
      <trkpt lat="45.58856" lon="0.6687">
        <ele>221</ele>
        <time>2022-10-30T10:00:28Z</time>
      </trkpt>
      <trkpt lat="45.58855" lon="0.66866">
        <ele>221.4</ele>
        <time>2022-10-30T10:00:34Z</time>
      </trkpt>
      <trkpt lat="45.58855" lon="0.66865">
        <ele>221.6</ele>
        <time>2022-10-30T10:00:36Z</time>
      </trkpt>
      <trkpt lat="45.58853" lon="0.66865">
        <ele>221.8</ele>
        <time>2022-10-30T10:00:40Z</time>
      </trkpt>
      <trkpt lat="45.58853" lon="0.6686">
        <ele>221.2</ele>
        <time>2022-10-30T10:00:50Z</time>
      </trkpt>
      <trkpt lat="45.58856" lon="0.66852">
        <ele>220.8</ele>
        <time>2022-10-30T10:00:56Z</time>
      </trkpt>
      <trkpt lat="45.58859" lon="0.66844">
        <ele>220.4</ele>
        <time>2022-10-30T10:01:04Z</time>
      </trkpt>
      <trkpt lat="45.58861" lon="0.66842">
        <ele>220.2</ele>
        <time>2022-10-30T10:01:06Z</time>
      </trkpt>
      <trkpt lat="45.58866" lon="0.66838">
        <ele>219.6</ele>
        <time>2022-10-30T10:01:11Z</time>
      </trkpt>
      <trkpt lat="45.58869" lon="0.66832">
        <ele>219.6</ele>
        <time>2022-10-30T10:01:17Z</time>
      </trkpt>
      <trkpt lat="45.5887" lon="0.66831">
        <ele>219.6</ele>
        <time>2022-10-30T10:01:18Z</time>
      </trkpt>
      <trkpt lat="45.58872" lon="0.6683">
        <ele>219.2</ele>
        <time>2022-10-30T10:01:21Z</time>
      </trkpt>
      <trkpt lat="45.58873" lon="0.6683">
        <ele>218.6</ele>
        <time>2022-10-30T10:01:23Z</time>
      </trkpt>
      <trkpt lat="45.58875" lon="0.66827">
        <ele>218</ele>
        <time>2022-10-30T10:01:28Z</time>
      </trkpt>
      <trkpt lat="45.58877" lon="0.66825">
        <ele>218</ele>
        <time>2022-10-30T10:01:31Z</time>
      </trkpt>
      <trkpt lat="45.58881" lon="0.66819">
        <ele>218</ele>
        <time>2022-10-30T10:01:39Z</time>
      </trkpt>
      <trkpt lat="45.58882" lon="0.66817">
        <ele>217.8</ele>
        <time>2022-10-30T10:01:41Z</time>
      </trkpt>
      <trkpt lat="45.58883" lon="0.66816">
        <ele>217.8</ele>
        <time>2022-10-30T10:01:43Z</time>
      </trkpt>
      <trkpt lat="45.58884" lon="0.66812">
        <ele>218.2</ele>
        <time>2022-10-30T10:01:46Z</time>
      </trkpt>
      <trkpt lat="45.58884" lon="0.66811">
        <ele>218.4</ele>
        <time>2022-10-30T10:01:47Z</time>
      </trkpt>
      <trkpt lat="45.58886" lon="0.66796">
        <ele>218.6</ele>
        <time>2022-10-30T10:01:58Z</time>
      </trkpt>
      <trkpt lat="45.58886" lon="0.66794">
        <ele>218.6</ele>
        <time>2022-10-30T10:02:00Z</time>
      </trkpt>
      <trkpt lat="45.58885" lon="0.66792">
        <ele>218.6</ele>
        <time>2022-10-30T10:02:01Z</time>
      </trkpt>
      <trkpt lat="45.58884" lon="0.66789">
        <ele>218.6</ele>
        <time>2022-10-30T10:02:03Z</time>
      </trkpt>
      <trkpt lat="45.58883" lon="0.66785">
        <ele>218.8</ele>
        <time>2022-10-30T10:02:06Z</time>
      </trkpt>
      <trkpt lat="45.58883" lon="0.66783">
        <ele>218.6</ele>
        <time>2022-10-30T10:02:09Z</time>
      </trkpt>
      <trkpt lat="45.58883" lon="0.66783">
        <ele>218.4</ele>
        <time>2022-10-30T10:02:12Z</time>
      </trkpt>
      <trkpt lat="45.58882" lon="0.66774">
        <ele>217.6</ele>
        <time>2022-10-30T10:02:26Z</time>
      </trkpt>
      <trkpt lat="45.58882" lon="0.66771">
        <ele>217.4</ele>
        <time>2022-10-30T10:02:28Z</time>
      </trkpt>
      <trkpt lat="45.58883" lon="0.66768">
        <ele>217</ele>
        <time>2022-10-30T10:02:31Z</time>
      </trkpt>
      <trkpt lat="45.58883" lon="0.66766">
        <ele>216.6</ele>
        <time>2022-10-30T10:02:34Z</time>
      </trkpt>
      <trkpt lat="45.58884" lon="0.6676">
        <ele>216.4</ele>
        <time>2022-10-30T10:02:39Z</time>
      </trkpt>
      <trkpt lat="45.58886" lon="0.66758">
        <ele>216</ele>
        <time>2022-10-30T10:02:41Z</time>
      </trkpt>
      <trkpt lat="45.58886" lon="0.66757">
        <ele>216</ele>
        <time>2022-10-30T10:02:42Z</time>
      </trkpt>
      <trkpt lat="45.58887" lon="0.66755">
        <ele>215.8</ele>
        <time>2022-10-30T10:02:44Z</time>
      </trkpt>
      <trkpt lat="45.58887" lon="0.66754">
        <ele>215.6</ele>
        <time>2022-10-30T10:02:45Z</time>
      </trkpt>
      <trkpt lat="45.58888" lon="0.66751">
        <ele>215</ele>
        <time>2022-10-30T10:02:48Z</time>
      </trkpt>
      <trkpt lat="45.58889" lon="0.66749">
        <ele>214.6</ele>
        <time>2022-10-30T10:02:50Z</time>
      </trkpt>
      <trkpt lat="45.58889" lon="0.6674">
        <ele>214</ele>
        <time>2022-10-30T10:02:58Z</time>
      </trkpt>
      <trkpt lat="45.58889" lon="0.66739">
        <ele>213.8</ele>
        <time>2022-10-30T10:02:59Z</time>
      </trkpt>
      <trkpt lat="45.58889" lon="0.66738">
        <ele>213.8</ele>
        <time>2022-10-30T10:03:00Z</time>
      </trkpt>
      <trkpt lat="45.5889" lon="0.66736">
        <ele>213.4</ele>
        <time>2022-10-30T10:03:02Z</time>
      </trkpt>
      <trkpt lat="45.58891" lon="0.66733">
        <ele>212.8</ele>
        <time>2022-10-30T10:03:05Z</time>
      </trkpt>
      <trkpt lat="45.58891" lon="0.66731">
        <ele>212.4</ele>
        <time>2022-10-30T10:03:07Z</time>
      </trkpt>
      <trkpt lat="45.58892" lon="0.66728">
        <ele>212</ele>
        <time>2022-10-30T10:03:11Z</time>
      </trkpt>
      <trkpt lat="45.58892" lon="0.66726">
        <ele>211.6</ele>
        <time>2022-10-30T10:03:13Z</time>
      </trkpt>
      <trkpt lat="45.58891" lon="0.66725">
        <ele>211.4</ele>
        <time>2022-10-30T10:03:14Z</time>
      </trkpt>
      <trkpt lat="45.58891" lon="0.66724">
        <ele>211.2</ele>
        <time>2022-10-30T10:03:17Z</time>
      </trkpt>
      <trkpt lat="45.58892" lon="0.66721">
        <ele>210.8</ele>
        <time>2022-10-30T10:03:26Z</time>
      </trkpt>
      <trkpt lat="45.5889" lon="0.6672">
        <ele>210.6</ele>
        <time>2022-10-30T10:03:36Z</time>
      </trkpt>
      <trkpt lat="45.5889" lon="0.66719">
        <ele>210</ele>
        <time>2022-10-30T10:03:43Z</time>
      </trkpt>
      <trkpt lat="45.58885" lon="0.66712">
        <ele>210</ele>
        <time>2022-10-30T10:03:56Z</time>
      </trkpt>
      <trkpt lat="45.58887" lon="0.66708">
        <ele>209.8</ele>
        <time>2022-10-30T10:04:10Z</time>
      </trkpt>
      <trkpt lat="45.58895" lon="0.66698">
        <ele>210</ele>
        <time>2022-10-30T10:04:26Z</time>
      </trkpt>
      <trkpt lat="45.58896" lon="0.66696">
        <ele>209.6</ele>
        <time>2022-10-30T10:04:46Z</time>
      </trkpt>
      <trkpt lat="45.58897" lon="0.66699">
        <ele>209.4</ele>
        <time>2022-10-30T10:05:06Z</time>
      </trkpt>
      <trkpt lat="45.58897" lon="0.66699">
        <ele>209.2</ele>
        <time>2022-10-30T10:05:07Z</time>
      </trkpt>
      <trkpt lat="45.589" lon="0.66698">
        <ele>208.4</ele>
        <time>2022-10-30T10:05:11Z</time>
      </trkpt>
      <trkpt lat="45.58904" lon="0.66699">
        <ele>207.4</ele>
        <time>2022-10-30T10:05:18Z</time>
      </trkpt>
      <trkpt lat="45.58907" lon="0.66699">
        <ele>206.8</ele>
        <time>2022-10-30T10:05:23Z</time>
      </trkpt>
      <trkpt lat="45.58908" lon="0.66699">
        <ele>206.4</ele>
        <time>2022-10-30T10:05:25Z</time>
      </trkpt>
      <trkpt lat="45.58914" lon="0.66709">
        <ele>207.2</ele>
        <time>2022-10-30T10:05:38Z</time>
      </trkpt>
      <trkpt lat="45.58915" lon="0.66711">
        <ele>207.4</ele>
        <time>2022-10-30T10:05:40Z</time>
      </trkpt>
      <trkpt lat="45.58918" lon="0.66718">
        <ele>206.8</ele>
        <time>2022-10-30T10:05:53Z</time>
      </trkpt>
      <trkpt lat="45.58918" lon="0.66718">
        <ele>206.4</ele>
        <time>2022-10-30T10:05:58Z</time>
      </trkpt>
      <trkpt lat="45.5892" lon="0.66717">
        <ele>206.8</ele>
        <time>2022-10-30T10:06:08Z</time>
      </trkpt>
      <trkpt lat="45.58923" lon="0.66709">
        <ele>207.2</ele>
        <time>2022-10-30T10:06:15Z</time>
      </trkpt>
      <trkpt lat="45.58925" lon="0.66707">
        <ele>207.4</ele>
        <time>2022-10-30T10:06:18Z</time>
      </trkpt>
      <trkpt lat="45.58926" lon="0.66707">
        <ele>207.6</ele>
        <time>2022-10-30T10:06:20Z</time>
      </trkpt>
      <trkpt lat="45.58927" lon="0.66707">
        <ele>208.6</ele>
        <time>2022-10-30T10:06:25Z</time>
      </trkpt>
      <trkpt lat="45.58928" lon="0.66707">
        <ele>210</ele>
        <time>2022-10-30T10:06:31Z</time>
      </trkpt>
      <trkpt lat="45.58927" lon="0.66707">
        <ele>210.4</ele>
        <time>2022-10-30T10:06:34Z</time>
      </trkpt>
      <trkpt lat="45.5893" lon="0.66712">
        <ele>211.2</ele>
        <time>2022-10-30T10:06:43Z</time>
      </trkpt>
      <trkpt lat="45.5893" lon="0.66714">
        <ele>211.6</ele>
        <time>2022-10-30T10:06:49Z</time>
      </trkpt>
      <trkpt lat="45.5893" lon="0.66721">
        <ele>212.4</ele>
        <time>2022-10-30T10:06:57Z</time>
      </trkpt>
      <trkpt lat="45.58931" lon="0.66724">
        <ele>213.4</ele>
        <time>2022-10-30T10:07:01Z</time>
      </trkpt>
      <trkpt lat="45.58931" lon="0.66724">
        <ele>213.6</ele>
        <time>2022-10-30T10:07:02Z</time>
      </trkpt>
      <trkpt lat="45.58934" lon="0.66723">
        <ele>214.4</ele>
        <time>2022-10-30T10:07:05Z</time>
      </trkpt>
      <trkpt lat="45.58937" lon="0.66722">
        <ele>214.8</ele>
        <time>2022-10-30T10:07:07Z</time>
      </trkpt>
      <trkpt lat="45.58938" lon="0.66722">
        <ele>215.2</ele>
        <time>2022-10-30T10:07:09Z</time>
      </trkpt>
      <trkpt lat="45.5894" lon="0.66722">
        <ele>215.6</ele>
        <time>2022-10-30T10:07:11Z</time>
      </trkpt>
      <trkpt lat="45.58941" lon="0.66722">
        <ele>216.4</ele>
        <time>2022-10-30T10:07:13Z</time>
      </trkpt>
      <trkpt lat="45.58942" lon="0.66722">
        <ele>216.8</ele>
        <time>2022-10-30T10:07:14Z</time>
      </trkpt>
      <trkpt lat="45.58945" lon="0.66723">
        <ele>217.6</ele>
        <time>2022-10-30T10:07:18Z</time>
      </trkpt>
      <trkpt lat="45.58946" lon="0.66724">
        <ele>217.8</ele>
        <time>2022-10-30T10:07:20Z</time>
      </trkpt>
      <trkpt lat="45.58947" lon="0.66726">
        <ele>218</ele>
        <time>2022-10-30T10:07:23Z</time>
      </trkpt>
      <trkpt lat="45.58947" lon="0.66729">
        <ele>218.8</ele>
        <time>2022-10-30T10:07:27Z</time>
      </trkpt>
      <trkpt lat="45.58947" lon="0.66731">
        <ele>219.2</ele>
        <time>2022-10-30T10:07:30Z</time>
      </trkpt>
      <trkpt lat="45.58947" lon="0.66732">
        <ele>220</ele>
        <time>2022-10-30T10:07:34Z</time>
      </trkpt>
      <trkpt lat="45.58946" lon="0.66731">
        <ele>221</ele>
        <time>2022-10-30T10:07:41Z</time>
      </trkpt>
      <trkpt lat="45.58947" lon="0.6673">
        <ele>221.2</ele>
        <time>2022-10-30T10:07:44Z</time>
      </trkpt>
      <trkpt lat="45.58948" lon="0.66731">
        <ele>221.2</ele>
        <time>2022-10-30T10:07:45Z</time>
      </trkpt>
      <trkpt lat="45.5895" lon="0.66727">
        <ele>221.6</ele>
        <time>2022-10-30T10:07:53Z</time>
      </trkpt>
      <trkpt lat="45.58949" lon="0.6672">
        <ele>221.6</ele>
        <time>2022-10-30T10:07:59Z</time>
      </trkpt>
      <trkpt lat="45.58949" lon="0.66718">
        <ele>221.4</ele>
        <time>2022-10-30T10:08:02Z</time>
      </trkpt>
      <trkpt lat="45.58949" lon="0.66717">
        <ele>221.4</ele>
        <time>2022-10-30T10:08:13Z</time>
      </trkpt>
      <trkpt lat="45.5895" lon="0.66706">
        <ele>221.4</ele>
        <time>2022-10-30T10:08:26Z</time>
      </trkpt>
      <trkpt lat="45.58953" lon="0.66696">
        <ele>221.2</ele>
        <time>2022-10-30T10:08:34Z</time>
      </trkpt>
      <trkpt lat="45.58954" lon="0.6669">
        <ele>221</ele>
        <time>2022-10-30T10:08:38Z</time>
      </trkpt>
      <trkpt lat="45.58956" lon="0.66688">
        <ele>221</ele>
        <time>2022-10-30T10:08:40Z</time>
      </trkpt>
      <trkpt lat="45.58961" lon="0.66682">
        <ele>221.2</ele>
        <time>2022-10-30T10:08:47Z</time>
      </trkpt>
      <trkpt lat="45.58962" lon="0.66681">
        <ele>221.4</ele>
        <time>2022-10-30T10:08:49Z</time>
      </trkpt>
      <trkpt lat="45.58964" lon="0.66677">
        <ele>221.4</ele>
        <time>2022-10-30T10:08:52Z</time>
      </trkpt>
      <trkpt lat="45.58965" lon="0.66673">
        <ele>221.2</ele>
        <time>2022-10-30T10:08:55Z</time>
      </trkpt>
      <trkpt lat="45.58969" lon="0.66658">
        <ele>221.2</ele>
        <time>2022-10-30T10:09:07Z</time>
      </trkpt>
      <trkpt lat="45.58975" lon="0.6665">
        <ele>221</ele>
        <time>2022-10-30T10:09:18Z</time>
      </trkpt>
      <trkpt lat="45.58975" lon="0.66649">
        <ele>221</ele>
        <time>2022-10-30T10:09:19Z</time>
      </trkpt>
      <trkpt lat="45.58976" lon="0.66649">
        <ele>221.2</ele>
        <time>2022-10-30T10:09:20Z</time>
      </trkpt>
      <trkpt lat="45.58983" lon="0.66647">
        <ele>221.2</ele>
        <time>2022-10-30T10:09:31Z</time>
      </trkpt>
      <trkpt lat="45.58989" lon="0.66649">
        <ele>221.4</ele>
        <time>2022-10-30T10:09:45Z</time>
      </trkpt>
      <trkpt lat="45.58992" lon="0.6665">
        <ele>221.2</ele>
        <time>2022-10-30T10:09:46Z</time>
      </trkpt>
      <trkpt lat="45.58994" lon="0.66648">
        <ele>221.4</ele>
        <time>2022-10-30T10:09:49Z</time>
      </trkpt>
      <trkpt lat="45.58998" lon="0.66645">
        <ele>221.2</ele>
        <time>2022-10-30T10:09:55Z</time>
      </trkpt>
      <trkpt lat="45.58999" lon="0.66644">
        <ele>221.2</ele>
        <time>2022-10-30T10:09:57Z</time>
      </trkpt>
      <trkpt lat="45.59002" lon="0.66642">
        <ele>221.2</ele>
        <time>2022-10-30T10:10:00Z</time>
      </trkpt>
      <trkpt lat="45.5901" lon="0.66636">
        <ele>221</ele>
        <time>2022-10-30T10:10:10Z</time>
      </trkpt>
      <trkpt lat="45.59021" lon="0.66629">
        <ele>220.6</ele>
        <time>2022-10-30T10:10:25Z</time>
      </trkpt>
      <trkpt lat="45.59023" lon="0.66629">
        <ele>220.6</ele>
        <time>2022-10-30T10:10:26Z</time>
      </trkpt>
      <trkpt lat="45.59023" lon="0.66627">
        <ele>220.8</ele>
        <time>2022-10-30T10:10:28Z</time>
      </trkpt>
      <trkpt lat="45.59026" lon="0.66622">
        <ele>221</ele>
        <time>2022-10-30T10:10:32Z</time>
      </trkpt>
      <trkpt lat="45.59029" lon="0.66618">
        <ele>220.8</ele>
        <time>2022-10-30T10:10:36Z</time>
      </trkpt>
      <trkpt lat="45.59042" lon="0.66609">
        <ele>221.4</ele>
        <time>2022-10-30T10:10:49Z</time>
      </trkpt>
      <trkpt lat="45.59045" lon="0.66609">
        <ele>221.8</ele>
        <time>2022-10-30T10:11:00Z</time>
      </trkpt>
      <trkpt lat="45.59045" lon="0.66609">
        <ele>222</ele>
        <time>2022-10-30T10:11:03Z</time>
      </trkpt>
      <trkpt lat="45.59044" lon="0.66609">
        <ele>222.2</ele>
        <time>2022-10-30T10:11:13Z</time>
      </trkpt>
      <trkpt lat="45.5905" lon="0.66606">
        <ele>222.2</ele>
        <time>2022-10-30T10:11:24Z</time>
      </trkpt>
      <trkpt lat="45.59051" lon="0.66606">
        <ele>222.2</ele>
        <time>2022-10-30T10:11:25Z</time>
      </trkpt>
      <trkpt lat="45.59068" lon="0.66603">
        <ele>222.8</ele>
        <time>2022-10-30T10:11:40Z</time>
      </trkpt>
      <trkpt lat="45.59068" lon="0.66603">
        <ele>223</ele>
        <time>2022-10-30T10:11:42Z</time>
      </trkpt>
      <trkpt lat="45.59066" lon="0.66602">
        <ele>223</ele>
        <time>2022-10-30T10:11:45Z</time>
      </trkpt>
      <trkpt lat="45.59065" lon="0.66602">
        <ele>223.2</ele>
        <time>2022-10-30T10:11:46Z</time>
      </trkpt>
      <trkpt lat="45.59064" lon="0.66602">
        <ele>223.2</ele>
        <time>2022-10-30T10:11:47Z</time>
      </trkpt>
      <trkpt lat="45.5906" lon="0.66603">
        <ele>222.8</ele>
        <time>2022-10-30T10:11:51Z</time>
      </trkpt>
      <trkpt lat="45.59054" lon="0.66604">
        <ele>222.2</ele>
        <time>2022-10-30T10:11:56Z</time>
      </trkpt>
      <trkpt lat="45.59051" lon="0.66604">
        <ele>222</ele>
        <time>2022-10-30T10:11:58Z</time>
      </trkpt>
      <trkpt lat="45.59046" lon="0.66605">
        <ele>222</ele>
        <time>2022-10-30T10:12:03Z</time>
      </trkpt>
      <trkpt lat="45.59041" lon="0.66604">
        <ele>221</ele>
        <time>2022-10-30T10:12:09Z</time>
      </trkpt>
      <trkpt lat="45.59041" lon="0.66604">
        <ele>220.8</ele>
        <time>2022-10-30T10:12:11Z</time>
      </trkpt>
      <trkpt lat="45.5904" lon="0.66603">
        <ele>220.6</ele>
        <time>2022-10-30T10:12:24Z</time>
      </trkpt>
      <trkpt lat="45.59035" lon="0.66596">
        <ele>219.8</ele>
        <time>2022-10-30T10:12:33Z</time>
      </trkpt>
      <trkpt lat="45.59035" lon="0.66593">
        <ele>219.6</ele>
        <time>2022-10-30T10:12:35Z</time>
      </trkpt>
      <trkpt lat="45.59033" lon="0.66589">
        <ele>218.6</ele>
        <time>2022-10-30T10:12:39Z</time>
      </trkpt>
      <trkpt lat="45.5903" lon="0.66579">
        <ele>217.6</ele>
        <time>2022-10-30T10:12:47Z</time>
      </trkpt>
      <trkpt lat="45.59029" lon="0.66574">
        <ele>217</ele>
        <time>2022-10-30T10:12:51Z</time>
      </trkpt>
      <trkpt lat="45.59027" lon="0.6657">
        <ele>216.6</ele>
        <time>2022-10-30T10:12:54Z</time>
      </trkpt>
      <trkpt lat="45.59024" lon="0.66563">
        <ele>215.6</ele>
        <time>2022-10-30T10:13:01Z</time>
      </trkpt>
      <trkpt lat="45.59024" lon="0.66562">
        <ele>215.4</ele>
        <time>2022-10-30T10:13:02Z</time>
      </trkpt>
      <trkpt lat="45.5902" lon="0.6656">
        <ele>214.6</ele>
        <time>2022-10-30T10:13:06Z</time>
      </trkpt>
      <trkpt lat="45.59019" lon="0.6656">
        <ele>214.4</ele>
        <time>2022-10-30T10:13:07Z</time>
      </trkpt>
      <trkpt lat="45.59014" lon="0.66557">
        <ele>213.6</ele>
        <time>2022-10-30T10:13:13Z</time>
      </trkpt>
      <trkpt lat="45.59012" lon="0.66556">
        <ele>213.4</ele>
        <time>2022-10-30T10:13:15Z</time>
      </trkpt>
      <trkpt lat="45.59007" lon="0.66549">
        <ele>212.4</ele>
        <time>2022-10-30T10:13:23Z</time>
      </trkpt>
      <trkpt lat="45.59006" lon="0.66546">
        <ele>212</ele>
        <time>2022-10-30T10:13:26Z</time>
      </trkpt>
      <trkpt lat="45.59005" lon="0.66545">
        <ele>211.2</ele>
        <time>2022-10-30T10:13:29Z</time>
      </trkpt>
      <trkpt lat="45.59005" lon="0.66545">
        <ele>211.2</ele>
        <time>2022-10-30T10:13:30Z</time>
      </trkpt>
      <trkpt lat="45.59005" lon="0.66544">
        <ele>210.8</ele>
        <time>2022-10-30T10:13:31Z</time>
      </trkpt>
      <trkpt lat="45.59004" lon="0.66541">
        <ele>210.2</ele>
        <time>2022-10-30T10:13:35Z</time>
      </trkpt>
      <trkpt lat="45.59003" lon="0.66537">
        <ele>209.6</ele>
        <time>2022-10-30T10:13:38Z</time>
      </trkpt>
      <trkpt lat="45.59002" lon="0.66532">
        <ele>209</ele>
        <time>2022-10-30T10:13:42Z</time>
      </trkpt>
      <trkpt lat="45.59" lon="0.66526">
        <ele>208</ele>
        <time>2022-10-30T10:13:48Z</time>
      </trkpt>
      <trkpt lat="45.58999" lon="0.66523">
        <ele>207.4</ele>
        <time>2022-10-30T10:13:51Z</time>
      </trkpt>
      <trkpt lat="45.58998" lon="0.66522">
        <ele>207.2</ele>
        <time>2022-10-30T10:13:52Z</time>
      </trkpt>
      <trkpt lat="45.58998" lon="0.66521">
        <ele>207</ele>
        <time>2022-10-30T10:13:53Z</time>
      </trkpt>
      <trkpt lat="45.58995" lon="0.66516">
        <ele>206</ele>
        <time>2022-10-30T10:13:58Z</time>
      </trkpt>
      <trkpt lat="45.58989" lon="0.66509">
        <ele>205</ele>
        <time>2022-10-30T10:14:07Z</time>
      </trkpt>
      <trkpt lat="45.58987" lon="0.66507">
        <ele>204.6</ele>
        <time>2022-10-30T10:14:09Z</time>
      </trkpt>
      <trkpt lat="45.58984" lon="0.66501">
        <ele>203.8</ele>
        <time>2022-10-30T10:14:15Z</time>
      </trkpt>
      <trkpt lat="45.58983" lon="0.66498">
        <ele>203.8</ele>
        <time>2022-10-30T10:14:18Z</time>
      </trkpt>
      <trkpt lat="45.5898" lon="0.6649">
        <ele>203.6</ele>
        <time>2022-10-30T10:14:25Z</time>
      </trkpt>
      <trkpt lat="45.58981" lon="0.66475">
        <ele>203.6</ele>
        <time>2022-10-30T10:14:37Z</time>
      </trkpt>
      <trkpt lat="45.58974" lon="0.66454">
        <ele>204.8</ele>
        <time>2022-10-30T10:14:51Z</time>
      </trkpt>
      <trkpt lat="45.58974" lon="0.66453">
        <ele>204.8</ele>
        <time>2022-10-30T10:14:53Z</time>
      </trkpt>
      <trkpt lat="45.58973" lon="0.66452">
        <ele>204.8</ele>
        <time>2022-10-30T10:14:55Z</time>
      </trkpt>
      <trkpt lat="45.58972" lon="0.66453">
        <ele>204.8</ele>
        <time>2022-10-30T10:14:57Z</time>
      </trkpt>
      <trkpt lat="45.58972" lon="0.66454">
        <ele>204.6</ele>
        <time>2022-10-30T10:15:00Z</time>
      </trkpt>
      <trkpt lat="45.58973" lon="0.66454">
        <ele>204.6</ele>
        <time>2022-10-30T10:15:04Z</time>
      </trkpt>
      <trkpt lat="45.58971" lon="0.66452">
        <ele>205</ele>
        <time>2022-10-30T10:15:10Z</time>
      </trkpt>
      <trkpt lat="45.58966" lon="0.66448">
        <ele>206</ele>
        <time>2022-10-30T10:15:17Z</time>
      </trkpt>
      <trkpt lat="45.58966" lon="0.66448">
        <ele>206.2</ele>
        <time>2022-10-30T10:15:18Z</time>
      </trkpt>
      <trkpt lat="45.58962" lon="0.66449">
        <ele>206.6</ele>
        <time>2022-10-30T10:15:21Z</time>
      </trkpt>
      <trkpt lat="45.5896" lon="0.66449">
        <ele>206.8</ele>
        <time>2022-10-30T10:15:24Z</time>
      </trkpt>
      <trkpt lat="45.58957" lon="0.6645">
        <ele>207.2</ele>
        <time>2022-10-30T10:15:26Z</time>
      </trkpt>
      <trkpt lat="45.58956" lon="0.6645">
        <ele>207.4</ele>
        <time>2022-10-30T10:15:27Z</time>
      </trkpt>
      <trkpt lat="45.58953" lon="0.66454">
        <ele>207.8</ele>
        <time>2022-10-30T10:15:30Z</time>
      </trkpt>
      <trkpt lat="45.5895" lon="0.66456">
        <ele>208.4</ele>
        <time>2022-10-30T10:15:33Z</time>
      </trkpt>
      <trkpt lat="45.58941" lon="0.6646">
        <ele>209.4</ele>
        <time>2022-10-30T10:15:42Z</time>
      </trkpt>
      <trkpt lat="45.58937" lon="0.6646">
        <ele>209.8</ele>
        <time>2022-10-30T10:15:45Z</time>
      </trkpt>
      <trkpt lat="45.58936" lon="0.6646">
        <ele>209.8</ele>
        <time>2022-10-30T10:15:46Z</time>
      </trkpt>
      <trkpt lat="45.58928" lon="0.66464">
        <ele>209.6</ele>
        <time>2022-10-30T10:15:58Z</time>
      </trkpt>
      <trkpt lat="45.5892" lon="0.66458">
        <ele>209.8</ele>
        <time>2022-10-30T10:16:09Z</time>
      </trkpt>
      <trkpt lat="45.58915" lon="0.66455">
        <ele>210.6</ele>
        <time>2022-10-30T10:16:13Z</time>
      </trkpt>
      <trkpt lat="45.58909" lon="0.66449">
        <ele>211.6</ele>
        <time>2022-10-30T10:16:19Z</time>
      </trkpt>
      <trkpt lat="45.58908" lon="0.66446">
        <ele>211.8</ele>
        <time>2022-10-30T10:16:21Z</time>
      </trkpt>
      <trkpt lat="45.58905" lon="0.66441">
        <ele>212.4</ele>
        <time>2022-10-30T10:16:26Z</time>
      </trkpt>
      <trkpt lat="45.589" lon="0.66435">
        <ele>212.6</ele>
        <time>2022-10-30T10:16:32Z</time>
      </trkpt>
      <trkpt lat="45.58897" lon="0.66428">
        <ele>213.6</ele>
        <time>2022-10-30T10:16:37Z</time>
      </trkpt>
      <trkpt lat="45.5889" lon="0.66414">
        <ele>214.6</ele>
        <time>2022-10-30T10:16:46Z</time>
      </trkpt>
      <trkpt lat="45.58888" lon="0.66406">
        <ele>214.4</ele>
        <time>2022-10-30T10:16:50Z</time>
      </trkpt>
      <trkpt lat="45.58886" lon="0.66393">
        <ele>214.6</ele>
        <time>2022-10-30T10:16:59Z</time>
      </trkpt>
      <trkpt lat="45.58887" lon="0.66383">
        <ele>213.8</ele>
        <time>2022-10-30T10:17:06Z</time>
      </trkpt>
      <trkpt lat="45.58887" lon="0.66379">
        <ele>213.6</ele>
        <time>2022-10-30T10:17:09Z</time>
      </trkpt>
      <trkpt lat="45.58888" lon="0.66374">
        <ele>213.2</ele>
        <time>2022-10-30T10:17:12Z</time>
      </trkpt>
      <trkpt lat="45.58888" lon="0.66372">
        <ele>213</ele>
        <time>2022-10-30T10:17:14Z</time>
      </trkpt>
      <trkpt lat="45.58889" lon="0.66369">
        <ele>212.4</ele>
        <time>2022-10-30T10:17:16Z</time>
      </trkpt>
      <trkpt lat="45.58898" lon="0.6636">
        <ele>212</ele>
        <time>2022-10-30T10:17:24Z</time>
      </trkpt>
      <trkpt lat="45.58913" lon="0.66355">
        <ele>212.4</ele>
        <time>2022-10-30T10:17:36Z</time>
      </trkpt>
      <trkpt lat="45.58928" lon="0.66352">
        <ele>213.4</ele>
        <time>2022-10-30T10:17:48Z</time>
      </trkpt>
      <trkpt lat="45.58929" lon="0.66351">
        <ele>213.4</ele>
        <time>2022-10-30T10:17:49Z</time>
      </trkpt>
      <trkpt lat="45.58938" lon="0.66347">
        <ele>214.4</ele>
        <time>2022-10-30T10:17:57Z</time>
      </trkpt>
      <trkpt lat="45.58942" lon="0.66345">
        <ele>214.6</ele>
        <time>2022-10-30T10:18:00Z</time>
      </trkpt>
      <trkpt lat="45.58951" lon="0.66337">
        <ele>215</ele>
        <time>2022-10-30T10:18:10Z</time>
      </trkpt>
      <trkpt lat="45.58956" lon="0.66332">
        <ele>215.6</ele>
        <time>2022-10-30T10:18:16Z</time>
      </trkpt>
      <trkpt lat="45.58959" lon="0.66329">
        <ele>215.6</ele>
        <time>2022-10-30T10:18:19Z</time>
      </trkpt>
      <trkpt lat="45.58966" lon="0.66321">
        <ele>215.8</ele>
        <time>2022-10-30T10:18:26Z</time>
      </trkpt>
      <trkpt lat="45.58973" lon="0.66312">
        <ele>216.4</ele>
        <time>2022-10-30T10:18:34Z</time>
      </trkpt>
      <trkpt lat="45.58975" lon="0.6631">
        <ele>216.6</ele>
        <time>2022-10-30T10:18:36Z</time>
      </trkpt>
      <trkpt lat="45.58979" lon="0.66305">
        <ele>217.2</ele>
        <time>2022-10-30T10:18:42Z</time>
      </trkpt>
      <trkpt lat="45.5898" lon="0.66305">
        <ele>217.2</ele>
        <time>2022-10-30T10:18:43Z</time>
      </trkpt>
      <trkpt lat="45.58986" lon="0.66301">
        <ele>217.4</ele>
        <time>2022-10-30T10:18:49Z</time>
      </trkpt>
      <trkpt lat="45.58987" lon="0.66301">
        <ele>217.6</ele>
        <time>2022-10-30T10:18:50Z</time>
      </trkpt>
      <trkpt lat="45.58995" lon="0.66298">
        <ele>217.8</ele>
        <time>2022-10-30T10:18:57Z</time>
      </trkpt>
      <trkpt lat="45.59004" lon="0.66297">
        <ele>218.2</ele>
        <time>2022-10-30T10:19:05Z</time>
      </trkpt>
      <trkpt lat="45.59012" lon="0.66295">
        <ele>218.6</ele>
        <time>2022-10-30T10:19:12Z</time>
      </trkpt>
      <trkpt lat="45.59014" lon="0.66295">
        <ele>218.6</ele>
        <time>2022-10-30T10:19:14Z</time>
      </trkpt>
      <trkpt lat="45.59023" lon="0.66297">
        <ele>218.8</ele>
        <time>2022-10-30T10:19:22Z</time>
      </trkpt>
      <trkpt lat="45.59025" lon="0.66296">
        <ele>219</ele>
        <time>2022-10-30T10:19:25Z</time>
      </trkpt>
      <trkpt lat="45.59031" lon="0.66295">
        <ele>219.2</ele>
        <time>2022-10-30T10:19:31Z</time>
      </trkpt>
      <trkpt lat="45.59041" lon="0.66294">
        <ele>219.6</ele>
        <time>2022-10-30T10:19:39Z</time>
      </trkpt>
      <trkpt lat="45.59042" lon="0.66293">
        <ele>219.6</ele>
        <time>2022-10-30T10:19:40Z</time>
      </trkpt>
      <trkpt lat="45.5905" lon="0.66292">
        <ele>219.8</ele>
        <time>2022-10-30T10:19:47Z</time>
      </trkpt>
      <trkpt lat="45.59059" lon="0.66292">
        <ele>219.8</ele>
        <time>2022-10-30T10:19:54Z</time>
      </trkpt>
      <trkpt lat="45.5907" lon="0.66291">
        <ele>220.2</ele>
        <time>2022-10-30T10:20:02Z</time>
      </trkpt>
      <trkpt lat="45.59078" lon="0.66292">
        <ele>220.4</ele>
        <time>2022-10-30T10:20:09Z</time>
      </trkpt>
      <trkpt lat="45.59087" lon="0.66295">
        <ele>220.6</ele>
        <time>2022-10-30T10:20:18Z</time>
      </trkpt>
      <trkpt lat="45.59093" lon="0.66296">
        <ele>220.6</ele>
        <time>2022-10-30T10:20:23Z</time>
      </trkpt>
      <trkpt lat="45.59094" lon="0.66297">
        <ele>220.6</ele>
        <time>2022-10-30T10:20:24Z</time>
      </trkpt>
      <trkpt lat="45.59096" lon="0.66299">
        <ele>220.8</ele>
        <time>2022-10-30T10:20:26Z</time>
      </trkpt>
      <trkpt lat="45.59098" lon="0.66302">
        <ele>220.8</ele>
        <time>2022-10-30T10:20:29Z</time>
      </trkpt>
      <trkpt lat="45.59105" lon="0.66302">
        <ele>221</ele>
        <time>2022-10-30T10:20:36Z</time>
      </trkpt>
      <trkpt lat="45.59105" lon="0.66303">
        <ele>221.2</ele>
        <time>2022-10-30T10:20:37Z</time>
      </trkpt>
      <trkpt lat="45.59108" lon="0.66304">
        <ele>221.2</ele>
        <time>2022-10-30T10:20:39Z</time>
      </trkpt>
      <trkpt lat="45.59114" lon="0.66304">
        <ele>220.8</ele>
        <time>2022-10-30T10:20:46Z</time>
      </trkpt>
      <trkpt lat="45.59132" lon="0.66304">
        <ele>221.2</ele>
        <time>2022-10-30T10:21:01Z</time>
      </trkpt>
      <trkpt lat="45.59147" lon="0.66304">
        <ele>221.8</ele>
        <time>2022-10-30T10:21:13Z</time>
      </trkpt>
      <trkpt lat="45.59152" lon="0.66305">
        <ele>221.8</ele>
        <time>2022-10-30T10:21:17Z</time>
      </trkpt>
      <trkpt lat="45.59158" lon="0.66311">
        <ele>221.8</ele>
        <time>2022-10-30T10:21:28Z</time>
      </trkpt>
      <trkpt lat="45.59158" lon="0.66312">
        <ele>221.8</ele>
        <time>2022-10-30T10:21:29Z</time>
      </trkpt>
      <trkpt lat="45.59164" lon="0.66316">
        <ele>221.6</ele>
        <time>2022-10-30T10:21:39Z</time>
      </trkpt>
      <trkpt lat="45.59169" lon="0.66318">
        <ele>221.6</ele>
        <time>2022-10-30T10:21:50Z</time>
      </trkpt>
      <trkpt lat="45.5917" lon="0.66331">
        <ele>221</ele>
        <time>2022-10-30T10:21:59Z</time>
      </trkpt>
      <trkpt lat="45.59171" lon="0.66334">
        <ele>220.6</ele>
        <time>2022-10-30T10:22:01Z</time>
      </trkpt>
      <trkpt lat="45.5917" lon="0.6635">
        <ele>219.6</ele>
        <time>2022-10-30T10:22:13Z</time>
      </trkpt>
      <trkpt lat="45.5917" lon="0.66352">
        <ele>219.4</ele>
        <time>2022-10-30T10:22:14Z</time>
      </trkpt>
      <trkpt lat="45.59171" lon="0.66373">
        <ele>218.4</ele>
        <time>2022-10-30T10:22:27Z</time>
      </trkpt>
      <trkpt lat="45.59171" lon="0.66374">
        <ele>218.2</ele>
        <time>2022-10-30T10:22:28Z</time>
      </trkpt>
      <trkpt lat="45.59171" lon="0.66391">
        <ele>217.4</ele>
        <time>2022-10-30T10:22:40Z</time>
      </trkpt>
      <trkpt lat="45.59171" lon="0.66394">
        <ele>217.2</ele>
        <time>2022-10-30T10:22:42Z</time>
      </trkpt>
      <trkpt lat="45.59173" lon="0.66399">
        <ele>217.2</ele>
        <time>2022-10-30T10:22:48Z</time>
      </trkpt>
      <trkpt lat="45.59174" lon="0.664">
        <ele>217.2</ele>
        <time>2022-10-30T10:22:51Z</time>
      </trkpt>
      <trkpt lat="45.59173" lon="0.66405">
        <ele>217.2</ele>
        <time>2022-10-30T10:23:01Z</time>
      </trkpt>
      <trkpt lat="45.59165" lon="0.66408">
        <ele>216.6</ele>
        <time>2022-10-30T10:23:10Z</time>
      </trkpt>
      <trkpt lat="45.59162" lon="0.66411">
        <ele>216.2</ele>
        <time>2022-10-30T10:23:13Z</time>
      </trkpt>
      <trkpt lat="45.59157" lon="0.66414">
        <ele>215.8</ele>
        <time>2022-10-30T10:23:20Z</time>
      </trkpt>
      <trkpt lat="45.59156" lon="0.66414">
        <ele>216.4</ele>
        <time>2022-10-30T10:23:21Z</time>
      </trkpt>
      <trkpt lat="45.59156" lon="0.6642">
        <ele>216</ele>
        <time>2022-10-30T10:23:31Z</time>
      </trkpt>
      <trkpt lat="45.59152" lon="0.66437">
        <ele>215.8</ele>
        <time>2022-10-30T10:23:43Z</time>
      </trkpt>
      <trkpt lat="45.59151" lon="0.6646">
        <ele>216.2</ele>
        <time>2022-10-30T10:23:57Z</time>
      </trkpt>
      <trkpt lat="45.59151" lon="0.66482">
        <ele>215.6</ele>
        <time>2022-10-30T10:24:12Z</time>
      </trkpt>
      <trkpt lat="45.59151" lon="0.66493">
        <ele>215.8</ele>
        <time>2022-10-30T10:24:21Z</time>
      </trkpt>
      <trkpt lat="45.59151" lon="0.66494">
        <ele>216</ele>
        <time>2022-10-30T10:24:25Z</time>
      </trkpt>
      <trkpt lat="45.59149" lon="0.66493">
        <ele>216.2</ele>
        <time>2022-10-30T10:24:38Z</time>
      </trkpt>
      <trkpt lat="45.5915" lon="0.66501">
        <ele>216.2</ele>
        <time>2022-10-30T10:24:51Z</time>
      </trkpt>
      <trkpt lat="45.5915" lon="0.66509">
        <ele>216.2</ele>
        <time>2022-10-30T10:24:56Z</time>
      </trkpt>
      <trkpt lat="45.59151" lon="0.66519">
        <ele>217.2</ele>
        <time>2022-10-30T10:25:03Z</time>
      </trkpt>
      <trkpt lat="45.59151" lon="0.6652">
        <ele>217.2</ele>
        <time>2022-10-30T10:25:04Z</time>
      </trkpt>
      <trkpt lat="45.59156" lon="0.66528">
        <ele>217.4</ele>
        <time>2022-10-30T10:25:12Z</time>
      </trkpt>
      <trkpt lat="45.59155" lon="0.66528">
        <ele>217.6</ele>
        <time>2022-10-30T10:25:16Z</time>
      </trkpt>
      <trkpt lat="45.59154" lon="0.66535">
        <ele>218</ele>
        <time>2022-10-30T10:25:28Z</time>
      </trkpt>
      <trkpt lat="45.59155" lon="0.66541">
        <ele>218.2</ele>
        <time>2022-10-30T10:25:31Z</time>
      </trkpt>
      <trkpt lat="45.59156" lon="0.66554">
        <ele>219.2</ele>
        <time>2022-10-30T10:25:39Z</time>
      </trkpt>
      <trkpt lat="45.59156" lon="0.66574">
        <ele>220.4</ele>
        <time>2022-10-30T10:25:51Z</time>
      </trkpt>
      <trkpt lat="45.59156" lon="0.66576">
        <ele>220.6</ele>
        <time>2022-10-30T10:25:52Z</time>
      </trkpt>
      <trkpt lat="45.59154" lon="0.6659">
        <ele>221.4</ele>
        <time>2022-10-30T10:26:02Z</time>
      </trkpt>
      <trkpt lat="45.59153" lon="0.66594">
        <ele>221.6</ele>
        <time>2022-10-30T10:26:04Z</time>
      </trkpt>
      <trkpt lat="45.59151" lon="0.66616">
        <ele>222.4</ele>
        <time>2022-10-30T10:26:16Z</time>
      </trkpt>
      <trkpt lat="45.5915" lon="0.66622">
        <ele>223</ele>
        <time>2022-10-30T10:26:19Z</time>
      </trkpt>
      <trkpt lat="45.59147" lon="0.66635">
        <ele>223.8</ele>
        <time>2022-10-30T10:26:26Z</time>
      </trkpt>
      <trkpt lat="45.59145" lon="0.66643">
        <ele>224</ele>
        <time>2022-10-30T10:26:31Z</time>
      </trkpt>
      <trkpt lat="45.59145" lon="0.66647">
        <ele>224</ele>
        <time>2022-10-30T10:26:34Z</time>
      </trkpt>
      <trkpt lat="45.59144" lon="0.6666">
        <ele>225</ele>
        <time>2022-10-30T10:26:42Z</time>
      </trkpt>
      <trkpt lat="45.59143" lon="0.66665">
        <ele>225</ele>
        <time>2022-10-30T10:26:45Z</time>
      </trkpt>
      <trkpt lat="45.59143" lon="0.66674">
        <ele>225.2</ele>
        <time>2022-10-30T10:26:51Z</time>
      </trkpt>
      <trkpt lat="45.59143" lon="0.66688">
        <ele>226.2</ele>
        <time>2022-10-30T10:26:59Z</time>
      </trkpt>
      <trkpt lat="45.59143" lon="0.6669">
        <ele>226.2</ele>
        <time>2022-10-30T10:27:00Z</time>
      </trkpt>
      <trkpt lat="45.59145" lon="0.66704">
        <ele>226.8</ele>
        <time>2022-10-30T10:27:08Z</time>
      </trkpt>
      <trkpt lat="45.59147" lon="0.6671">
        <ele>227.2</ele>
        <time>2022-10-30T10:27:12Z</time>
      </trkpt>
      <trkpt lat="45.59147" lon="0.66715">
        <ele>227.4</ele>
        <time>2022-10-30T10:27:15Z</time>
      </trkpt>
      <trkpt lat="45.59151" lon="0.66729">
        <ele>228</ele>
        <time>2022-10-30T10:27:24Z</time>
      </trkpt>
      <trkpt lat="45.59151" lon="0.66734">
        <ele>228.2</ele>
        <time>2022-10-30T10:27:27Z</time>
      </trkpt>
      <trkpt lat="45.59156" lon="0.66746">
        <ele>228.2</ele>
        <time>2022-10-30T10:27:35Z</time>
      </trkpt>
      <trkpt lat="45.59158" lon="0.66749">
        <ele>228.2</ele>
        <time>2022-10-30T10:27:38Z</time>
      </trkpt>
      <trkpt lat="45.59159" lon="0.66751">
        <ele>228.2</ele>
        <time>2022-10-30T10:27:41Z</time>
      </trkpt>
      <trkpt lat="45.5916" lon="0.66753">
        <ele>228.2</ele>
        <time>2022-10-30T10:27:43Z</time>
      </trkpt>
      <trkpt lat="45.59161" lon="0.66762">
        <ele>227.6</ele>
        <time>2022-10-30T10:27:52Z</time>
      </trkpt>
      <trkpt lat="45.5916" lon="0.66763">
        <ele>227.2</ele>
        <time>2022-10-30T10:28:06Z</time>
      </trkpt>
      <trkpt lat="45.5916" lon="0.66764">
        <ele>227.2</ele>
        <time>2022-10-30T10:28:07Z</time>
      </trkpt>
      <trkpt lat="45.59166" lon="0.66763">
        <ele>227</ele>
        <time>2022-10-30T10:28:11Z</time>
      </trkpt>
      <trkpt lat="45.59168" lon="0.66764">
        <ele>227</ele>
        <time>2022-10-30T10:28:13Z</time>
      </trkpt>
      <trkpt lat="45.59169" lon="0.66765">
        <ele>227</ele>
        <time>2022-10-30T10:28:14Z</time>
      </trkpt>
      <trkpt lat="45.59169" lon="0.66772">
        <ele>226.6</ele>
        <time>2022-10-30T10:28:21Z</time>
      </trkpt>
      <trkpt lat="45.59169" lon="0.66772">
        <ele>226.6</ele>
        <time>2022-10-30T10:28:24Z</time>
      </trkpt>
      <trkpt lat="45.59167" lon="0.66772">
        <ele>226.8</ele>
        <time>2022-10-30T10:28:41Z</time>
      </trkpt>
      <trkpt lat="45.59167" lon="0.6678">
        <ele>226.4</ele>
        <time>2022-10-30T10:28:50Z</time>
      </trkpt>
      <trkpt lat="45.59167" lon="0.66787">
        <ele>226.2</ele>
        <time>2022-10-30T10:28:54Z</time>
      </trkpt>
      <trkpt lat="45.59165" lon="0.66807">
        <ele>225.2</ele>
        <time>2022-10-30T10:29:05Z</time>
      </trkpt>
      <trkpt lat="45.59164" lon="0.66809">
        <ele>225</ele>
        <time>2022-10-30T10:29:07Z</time>
      </trkpt>
      <trkpt lat="45.5916" lon="0.66823">
        <ele>224.2</ele>
        <time>2022-10-30T10:29:18Z</time>
      </trkpt>
      <trkpt lat="45.5916" lon="0.66824">
        <ele>224</ele>
        <time>2022-10-30T10:29:20Z</time>
      </trkpt>
      <trkpt lat="45.5916" lon="0.66825">
        <ele>224</ele>
        <time>2022-10-30T10:29:22Z</time>
      </trkpt>
      <trkpt lat="45.59161" lon="0.66826">
        <ele>223.8</ele>
        <time>2022-10-30T10:29:30Z</time>
      </trkpt>
      <trkpt lat="45.59161" lon="0.66825">
        <ele>223.6</ele>
        <time>2022-10-30T10:29:48Z</time>
      </trkpt>
      <trkpt lat="45.59162" lon="0.66826">
        <ele>223.4</ele>
        <time>2022-10-30T10:30:04Z</time>
      </trkpt>
      <trkpt lat="45.59161" lon="0.66829">
        <ele>223.2</ele>
        <time>2022-10-30T10:30:23Z</time>
      </trkpt>
      <trkpt lat="45.59158" lon="0.66834">
        <ele>223.4</ele>
        <time>2022-10-30T10:30:40Z</time>
      </trkpt>
      <trkpt lat="45.59162" lon="0.66825">
        <ele>224</ele>
        <time>2022-10-30T10:30:51Z</time>
      </trkpt>
      <trkpt lat="45.59163" lon="0.66824">
        <ele>224</ele>
        <time>2022-10-30T10:30:52Z</time>
      </trkpt>
      <trkpt lat="45.59165" lon="0.66809">
        <ele>224.4</ele>
        <time>2022-10-30T10:31:02Z</time>
      </trkpt>
      <trkpt lat="45.59165" lon="0.66808">
        <ele>224.4</ele>
        <time>2022-10-30T10:31:03Z</time>
      </trkpt>
      <trkpt lat="45.59165" lon="0.66797">
        <ele>224.6</ele>
        <time>2022-10-30T10:31:11Z</time>
      </trkpt>
      <trkpt lat="45.59165" lon="0.66793">
        <ele>224.6</ele>
        <time>2022-10-30T10:31:13Z</time>
      </trkpt>
      <trkpt lat="45.59164" lon="0.66782">
        <ele>225</ele>
        <time>2022-10-30T10:31:20Z</time>
      </trkpt>
      <trkpt lat="45.59162" lon="0.66763">
        <ele>225.8</ele>
        <time>2022-10-30T10:31:30Z</time>
      </trkpt>
      <trkpt lat="45.59162" lon="0.66758">
        <ele>226.2</ele>
        <time>2022-10-30T10:31:33Z</time>
      </trkpt>
      <trkpt lat="45.59159" lon="0.66748">
        <ele>226.4</ele>
        <time>2022-10-30T10:31:41Z</time>
      </trkpt>
      <trkpt lat="45.59158" lon="0.66748">
        <ele>226.4</ele>
        <time>2022-10-30T10:31:42Z</time>
      </trkpt>
      <trkpt lat="45.59158" lon="0.66748">
        <ele>226.4</ele>
        <time>2022-10-30T10:31:57Z</time>
      </trkpt>
      <trkpt lat="45.59151" lon="0.66754">
        <ele>227</ele>
        <time>2022-10-30T10:32:06Z</time>
      </trkpt>
      <trkpt lat="45.5915" lon="0.66755">
        <ele>227.2</ele>
        <time>2022-10-30T10:32:07Z</time>
      </trkpt>
      <trkpt lat="45.5915" lon="0.66756">
        <ele>227.4</ele>
        <time>2022-10-30T10:32:09Z</time>
      </trkpt>
      <trkpt lat="45.59154" lon="0.66756">
        <ele>227</ele>
        <time>2022-10-30T10:32:18Z</time>
      </trkpt>
      <trkpt lat="45.59154" lon="0.6675">
        <ele>226.6</ele>
        <time>2022-10-30T10:32:23Z</time>
      </trkpt>
      <trkpt lat="45.59153" lon="0.6674">
        <ele>226.4</ele>
        <time>2022-10-30T10:32:29Z</time>
      </trkpt>
      <trkpt lat="45.59153" lon="0.66739">
        <ele>226.4</ele>
        <time>2022-10-30T10:32:30Z</time>
      </trkpt>
      <trkpt lat="45.59151" lon="0.66723">
        <ele>226.2</ele>
        <time>2022-10-30T10:32:38Z</time>
      </trkpt>
      <trkpt lat="45.59147" lon="0.66715">
        <ele>227.2</ele>
        <time>2022-10-30T10:32:43Z</time>
      </trkpt>
      <trkpt lat="45.59143" lon="0.66694">
        <ele>227</ele>
        <time>2022-10-30T10:32:57Z</time>
      </trkpt>
      <trkpt lat="45.59144" lon="0.66688">
        <ele>226.6</ele>
        <time>2022-10-30T10:33:01Z</time>
      </trkpt>
      <trkpt lat="45.59144" lon="0.66682">
        <ele>226.2</ele>
        <time>2022-10-30T10:33:05Z</time>
      </trkpt>
      <trkpt lat="45.59144" lon="0.6668">
        <ele>226.2</ele>
        <time>2022-10-30T10:33:06Z</time>
      </trkpt>
      <trkpt lat="45.59145" lon="0.66656">
        <ele>225.4</ele>
        <time>2022-10-30T10:33:22Z</time>
      </trkpt>
      <trkpt lat="45.59146" lon="0.66649">
        <ele>225.2</ele>
        <time>2022-10-30T10:33:27Z</time>
      </trkpt>
      <trkpt lat="45.59148" lon="0.66637">
        <ele>224.4</ele>
        <time>2022-10-30T10:33:35Z</time>
      </trkpt>
      <trkpt lat="45.59149" lon="0.66631">
        <ele>224.2</ele>
        <time>2022-10-30T10:33:39Z</time>
      </trkpt>
      <trkpt lat="45.5915" lon="0.66618">
        <ele>223.2</ele>
        <time>2022-10-30T10:33:47Z</time>
      </trkpt>
      <trkpt lat="45.59152" lon="0.6661">
        <ele>223.2</ele>
        <time>2022-10-30T10:33:51Z</time>
      </trkpt>
      <trkpt lat="45.59152" lon="0.66602">
        <ele>221.8</ele>
        <time>2022-10-30T10:33:55Z</time>
      </trkpt>
      <trkpt lat="45.5915" lon="0.66583">
        <ele>221.4</ele>
        <time>2022-10-30T10:34:06Z</time>
      </trkpt>
      <trkpt lat="45.59141" lon="0.6658">
        <ele>221.6</ele>
        <time>2022-10-30T10:34:15Z</time>
      </trkpt>
      <trkpt lat="45.59124" lon="0.66583">
        <ele>221.2</ele>
        <time>2022-10-30T10:34:30Z</time>
      </trkpt>
      <trkpt lat="45.59105" lon="0.66589">
        <ele>221</ele>
        <time>2022-10-30T10:34:45Z</time>
      </trkpt>
      <trkpt lat="45.59104" lon="0.6659">
        <ele>221.2</ele>
        <time>2022-10-30T10:34:46Z</time>
      </trkpt>
      <trkpt lat="45.59086" lon="0.66597">
        <ele>221.8</ele>
        <time>2022-10-30T10:35:01Z</time>
      </trkpt>
      <trkpt lat="45.59085" lon="0.66597">
        <ele>221.8</ele>
        <time>2022-10-30T10:35:02Z</time>
      </trkpt>
      <trkpt lat="45.59067" lon="0.66601">
        <ele>222.8</ele>
        <time>2022-10-30T10:35:17Z</time>
      </trkpt>
      <trkpt lat="45.59065" lon="0.66601">
        <ele>222.4</ele>
        <time>2022-10-30T10:35:19Z</time>
      </trkpt>
      <trkpt lat="45.59055" lon="0.66606">
        <ele>222.8</ele>
        <time>2022-10-30T10:35:32Z</time>
      </trkpt>
      <trkpt lat="45.59052" lon="0.66608">
        <ele>223</ele>
        <time>2022-10-30T10:35:36Z</time>
      </trkpt>
      <trkpt lat="45.59041" lon="0.66614">
        <ele>221.8</ele>
        <time>2022-10-30T10:35:46Z</time>
      </trkpt>
      <trkpt lat="45.59033" lon="0.66616">
        <ele>221.6</ele>
        <time>2022-10-30T10:35:53Z</time>
      </trkpt>
      <trkpt lat="45.59033" lon="0.66616">
        <ele>221.8</ele>
        <time>2022-10-30T10:35:54Z</time>
      </trkpt>
      <trkpt lat="45.59025" lon="0.66619">
        <ele>222</ele>
        <time>2022-10-30T10:36:03Z</time>
      </trkpt>
      <trkpt lat="45.59012" lon="0.66627">
        <ele>222.4</ele>
        <time>2022-10-30T10:36:19Z</time>
      </trkpt>
      <trkpt lat="45.58998" lon="0.66631">
        <ele>222.6</ele>
        <time>2022-10-30T10:36:34Z</time>
      </trkpt>
      <trkpt lat="45.58989" lon="0.6664">
        <ele>221.8</ele>
        <time>2022-10-30T10:36:47Z</time>
      </trkpt>
      <trkpt lat="45.58982" lon="0.66648">
        <ele>222.2</ele>
        <time>2022-10-30T10:37:00Z</time>
      </trkpt>
      <trkpt lat="45.58979" lon="0.66647">
        <ele>222</ele>
        <time>2022-10-30T10:37:04Z</time>
      </trkpt>
      <trkpt lat="45.5897" lon="0.66644">
        <ele>222.4</ele>
        <time>2022-10-30T10:37:18Z</time>
      </trkpt>
      <trkpt lat="45.58969" lon="0.66644">
        <ele>222.4</ele>
        <time>2022-10-30T10:37:32Z</time>
      </trkpt>
      <trkpt lat="45.5897" lon="0.66648">
        <ele>222</ele>
        <time>2022-10-30T10:37:46Z</time>
      </trkpt>
      <trkpt lat="45.58966" lon="0.66654">
        <ele>222.8</ele>
        <time>2022-10-30T10:37:55Z</time>
      </trkpt>
      <trkpt lat="45.58965" lon="0.66657">
        <ele>222.8</ele>
        <time>2022-10-30T10:37:59Z</time>
      </trkpt>
      <trkpt lat="45.58965" lon="0.66662">
        <ele>222.8</ele>
        <time>2022-10-30T10:38:02Z</time>
      </trkpt>
      <trkpt lat="45.58964" lon="0.66663">
        <ele>222.8</ele>
        <time>2022-10-30T10:38:03Z</time>
      </trkpt>
      <trkpt lat="45.58964" lon="0.66665">
        <ele>222.8</ele>
        <time>2022-10-30T10:38:05Z</time>
      </trkpt>
      <trkpt lat="45.58962" lon="0.6667">
        <ele>222.8</ele>
        <time>2022-10-30T10:38:09Z</time>
      </trkpt>
      <trkpt lat="45.58961" lon="0.66674">
        <ele>223</ele>
        <time>2022-10-30T10:38:12Z</time>
      </trkpt>
      <trkpt lat="45.58957" lon="0.6669">
        <ele>223.4</ele>
        <time>2022-10-30T10:38:27Z</time>
      </trkpt>
      <trkpt lat="45.58954" lon="0.66708">
        <ele>223.4</ele>
        <time>2022-10-30T10:38:42Z</time>
      </trkpt>
      <trkpt lat="45.58954" lon="0.66718">
        <ele>224</ele>
        <time>2022-10-30T10:38:51Z</time>
      </trkpt>
      <trkpt lat="45.58953" lon="0.66719">
        <ele>224</ele>
        <time>2022-10-30T10:38:52Z</time>
      </trkpt>
      <trkpt lat="45.58952" lon="0.66724">
        <ele>223.8</ele>
        <time>2022-10-30T10:38:56Z</time>
      </trkpt>
      <trkpt lat="45.58952" lon="0.66727">
        <ele>223.4</ele>
        <time>2022-10-30T10:38:58Z</time>
      </trkpt>
      <trkpt lat="45.58951" lon="0.66727">
        <ele>223.4</ele>
        <time>2022-10-30T10:38:59Z</time>
      </trkpt>
      <trkpt lat="45.58949" lon="0.66732">
        <ele>223.4</ele>
        <time>2022-10-30T10:39:03Z</time>
      </trkpt>
      <trkpt lat="45.58949" lon="0.66734">
        <ele>223.4</ele>
        <time>2022-10-30T10:39:04Z</time>
      </trkpt>
      <trkpt lat="45.58948" lon="0.66737">
        <ele>223.4</ele>
        <time>2022-10-30T10:39:06Z</time>
      </trkpt>
      <trkpt lat="45.58946" lon="0.66742">
        <ele>223.6</ele>
        <time>2022-10-30T10:39:10Z</time>
      </trkpt>
      <trkpt lat="45.58945" lon="0.66744">
        <ele>223.6</ele>
        <time>2022-10-30T10:39:11Z</time>
      </trkpt>
      <trkpt lat="45.58945" lon="0.66746">
        <ele>223.8</ele>
        <time>2022-10-30T10:39:12Z</time>
      </trkpt>
      <trkpt lat="45.58941" lon="0.66767">
        <ele>223.6</ele>
        <time>2022-10-30T10:39:27Z</time>
      </trkpt>
      <trkpt lat="45.5894" lon="0.66771">
        <ele>223.6</ele>
        <time>2022-10-30T10:39:33Z</time>
      </trkpt>
      <trkpt lat="45.58941" lon="0.66774">
        <ele>223.6</ele>
        <time>2022-10-30T10:39:36Z</time>
      </trkpt>
      <trkpt lat="45.5894" lon="0.66778">
        <ele>223.6</ele>
        <time>2022-10-30T10:39:38Z</time>
      </trkpt>
      <trkpt lat="45.58931" lon="0.66788">
        <ele>224.4</ele>
        <time>2022-10-30T10:39:50Z</time>
      </trkpt>
      <trkpt lat="45.58928" lon="0.66791">
        <ele>224.4</ele>
        <time>2022-10-30T10:39:53Z</time>
      </trkpt>
      <trkpt lat="45.58919" lon="0.66797">
        <ele>224</ele>
        <time>2022-10-30T10:40:04Z</time>
      </trkpt>
      <trkpt lat="45.58915" lon="0.66805">
        <ele>224</ele>
        <time>2022-10-30T10:40:13Z</time>
      </trkpt>
      <trkpt lat="45.58913" lon="0.66808">
        <ele>224.2</ele>
        <time>2022-10-30T10:40:15Z</time>
      </trkpt>
      <trkpt lat="45.58913" lon="0.66812">
        <ele>224</ele>
        <time>2022-10-30T10:40:18Z</time>
      </trkpt>
      <trkpt lat="45.58912" lon="0.66814">
        <ele>223.8</ele>
        <time>2022-10-30T10:40:20Z</time>
      </trkpt>
      <trkpt lat="45.5891" lon="0.6682">
        <ele>224</ele>
        <time>2022-10-30T10:40:25Z</time>
      </trkpt>
      <trkpt lat="45.5891" lon="0.66821">
        <ele>224</ele>
        <time>2022-10-30T10:40:26Z</time>
      </trkpt>
      <trkpt lat="45.5891" lon="0.66823">
        <ele>224</ele>
        <time>2022-10-30T10:40:28Z</time>
      </trkpt>
      <trkpt lat="45.58909" lon="0.66826">
        <ele>224</ele>
        <time>2022-10-30T10:40:30Z</time>
      </trkpt>
      <trkpt lat="45.58908" lon="0.6683">
        <ele>224</ele>
        <time>2022-10-30T10:40:34Z</time>
      </trkpt>
      <trkpt lat="45.58898" lon="0.6684">
        <ele>223.8</ele>
        <time>2022-10-30T10:40:47Z</time>
      </trkpt>
      <trkpt lat="45.58889" lon="0.66845">
        <ele>223.8</ele>
        <time>2022-10-30T10:41:00Z</time>
      </trkpt>
      <trkpt lat="45.58887" lon="0.66849">
        <ele>223.8</ele>
        <time>2022-10-30T10:41:03Z</time>
      </trkpt>
      <trkpt lat="45.58886" lon="0.6685">
        <ele>223.8</ele>
        <time>2022-10-30T10:41:04Z</time>
      </trkpt>
      <trkpt lat="45.58884" lon="0.66855">
        <ele>223.6</ele>
        <time>2022-10-30T10:41:08Z</time>
      </trkpt>
      <trkpt lat="45.58884" lon="0.66856">
        <ele>223.8</ele>
        <time>2022-10-30T10:41:09Z</time>
      </trkpt>
      <trkpt lat="45.58883" lon="0.66861">
        <ele>223.8</ele>
        <time>2022-10-30T10:41:13Z</time>
      </trkpt>
      <trkpt lat="45.58883" lon="0.66863">
        <ele>223.8</ele>
        <time>2022-10-30T10:41:15Z</time>
      </trkpt>
      <trkpt lat="45.58883" lon="0.66867">
        <ele>223.8</ele>
        <time>2022-10-30T10:41:18Z</time>
      </trkpt>
      <trkpt lat="45.58882" lon="0.6687">
        <ele>223.8</ele>
        <time>2022-10-30T10:41:22Z</time>
      </trkpt>
      <trkpt lat="45.58882" lon="0.66872">
        <ele>224</ele>
        <time>2022-10-30T10:41:24Z</time>
      </trkpt>
      <trkpt lat="45.58879" lon="0.66877">
        <ele>224.2</ele>
        <time>2022-10-30T10:41:29Z</time>
      </trkpt>
      <trkpt lat="45.58879" lon="0.66883">
        <ele>224.6</ele>
        <time>2022-10-30T10:41:41Z</time>
      </trkpt>
      <trkpt lat="45.58877" lon="0.66891">
        <ele>223.6</ele>
        <time>2022-10-30T10:41:53Z</time>
      </trkpt>
      <trkpt lat="45.58875" lon="0.66894">
        <ele>223.6</ele>
        <time>2022-10-30T10:41:56Z</time>
      </trkpt>
      <trkpt lat="45.58873" lon="0.66898">
        <ele>223.8</ele>
        <time>2022-10-30T10:41:59Z</time>
      </trkpt>
      <trkpt lat="45.58872" lon="0.66908">
        <ele>223.6</ele>
        <time>2022-10-30T10:42:06Z</time>
      </trkpt>
      <trkpt lat="45.58876" lon="0.66923">
        <ele>223.8</ele>
        <time>2022-10-30T10:42:19Z</time>
      </trkpt>
      <trkpt lat="45.58878" lon="0.66923">
        <ele>223.8</ele>
        <time>2022-10-30T10:42:22Z</time>
      </trkpt>
      <trkpt lat="45.58881" lon="0.66932">
        <ele>223.8</ele>
        <time>2022-10-30T10:42:30Z</time>
      </trkpt>
      <trkpt lat="45.58884" lon="0.66941">
        <ele>223.8</ele>
        <time>2022-10-30T10:42:44Z</time>
      </trkpt>
      <trkpt lat="45.58888" lon="0.66945">
        <ele>223.8</ele>
        <time>2022-10-30T10:42:56Z</time>
      </trkpt>
      <trkpt lat="45.58889" lon="0.66945">
        <ele>223.6</ele>
        <time>2022-10-30T10:43:08Z</time>
      </trkpt>
      <trkpt lat="45.5889" lon="0.66947">
        <ele>223.6</ele>
        <time>2022-10-30T10:43:22Z</time>
      </trkpt>
      <trkpt lat="45.58897" lon="0.66947">
        <ele>223.2</ele>
        <time>2022-10-30T10:43:35Z</time>
      </trkpt>
      <trkpt lat="45.58902" lon="0.66943">
        <ele>223.8</ele>
        <time>2022-10-30T10:43:49Z</time>
      </trkpt>
      <trkpt lat="45.58912" lon="0.66942">
        <ele>223.8</ele>
        <time>2022-10-30T10:44:04Z</time>
      </trkpt>
      <trkpt lat="45.58917" lon="0.66935">
        <ele>223.8</ele>
        <time>2022-10-30T10:44:10Z</time>
      </trkpt>
      <trkpt lat="45.58922" lon="0.66931">
        <ele>224</ele>
        <time>2022-10-30T10:44:18Z</time>
      </trkpt>
      <trkpt lat="45.58932" lon="0.66933">
        <ele>223.8</ele>
        <time>2022-10-30T10:44:31Z</time>
      </trkpt>
      <trkpt lat="45.58934" lon="0.66934">
        <ele>224</ele>
        <time>2022-10-30T10:44:34Z</time>
      </trkpt>
      <trkpt lat="45.58936" lon="0.66934">
        <ele>224.4</ele>
        <time>2022-10-30T10:44:37Z</time>
      </trkpt>
      <trkpt lat="45.58943" lon="0.66936">
        <ele>224.6</ele>
        <time>2022-10-30T10:44:45Z</time>
      </trkpt>
      <trkpt lat="45.58954" lon="0.66937">
        <ele>224.8</ele>
        <time>2022-10-30T10:44:57Z</time>
      </trkpt>
      <trkpt lat="45.58957" lon="0.66936">
        <ele>225</ele>
        <time>2022-10-30T10:45:01Z</time>
      </trkpt>
      <trkpt lat="45.58969" lon="0.66929">
        <ele>224.8</ele>
        <time>2022-10-30T10:45:17Z</time>
      </trkpt>
      <trkpt lat="45.58975" lon="0.66929">
        <ele>224.6</ele>
        <time>2022-10-30T10:45:30Z</time>
      </trkpt>
      <trkpt lat="45.58982" lon="0.66928">
        <ele>224.6</ele>
        <time>2022-10-30T10:45:44Z</time>
      </trkpt>
      <trkpt lat="45.58995" lon="0.66929">
        <ele>224.4</ele>
        <time>2022-10-30T10:46:01Z</time>
      </trkpt>
      <trkpt lat="45.59" lon="0.66929">
        <ele>224.6</ele>
        <time>2022-10-30T10:46:12Z</time>
      </trkpt>
      <trkpt lat="45.59004" lon="0.66925">
        <ele>224</ele>
        <time>2022-10-30T10:46:29Z</time>
      </trkpt>
      <trkpt lat="45.5901" lon="0.66923">
        <ele>224.4</ele>
        <time>2022-10-30T10:46:45Z</time>
      </trkpt>
      <trkpt lat="45.5901" lon="0.66923">
        <ele>224.4</ele>
        <time>2022-10-30T10:46:46Z</time>
      </trkpt>
      <trkpt lat="45.59012" lon="0.66908">
        <ele>224.8</ele>
        <time>2022-10-30T10:46:58Z</time>
      </trkpt>
      <trkpt lat="45.59013" lon="0.66895">
        <ele>226</ele>
        <time>2022-10-30T10:47:12Z</time>
      </trkpt>
      <trkpt lat="45.59013" lon="0.66894">
        <ele>226.2</ele>
        <time>2022-10-30T10:47:13Z</time>
      </trkpt>
      <trkpt lat="45.59012" lon="0.66889">
        <ele>227.2</ele>
        <time>2022-10-30T10:47:20Z</time>
      </trkpt>
      <trkpt lat="45.59009" lon="0.66881">
        <ele>228.4</ele>
        <time>2022-10-30T10:47:25Z</time>
      </trkpt>
      <trkpt lat="45.59008" lon="0.66878">
        <ele>229</ele>
        <time>2022-10-30T10:47:28Z</time>
      </trkpt>
      <trkpt lat="45.59007" lon="0.66875">
        <ele>229.2</ele>
        <time>2022-10-30T10:47:30Z</time>
      </trkpt>
      <trkpt lat="45.59006" lon="0.66872">
        <ele>229.6</ele>
        <time>2022-10-30T10:47:33Z</time>
      </trkpt>
      <trkpt lat="45.59006" lon="0.66863">
        <ele>230.4</ele>
        <time>2022-10-30T10:47:41Z</time>
      </trkpt>
      <trkpt lat="45.59006" lon="0.66861">
        <ele>230.6</ele>
        <time>2022-10-30T10:47:43Z</time>
      </trkpt>
      <trkpt lat="45.59007" lon="0.66844">
        <ele>231.2</ele>
        <time>2022-10-30T10:47:56Z</time>
      </trkpt>
      <trkpt lat="45.59008" lon="0.66843">
        <ele>231.2</ele>
        <time>2022-10-30T10:47:58Z</time>
      </trkpt>
      <trkpt lat="45.59007" lon="0.66843">
        <ele>230.6</ele>
        <time>2022-10-30T10:48:10Z</time>
      </trkpt>
      <trkpt lat="45.59005" lon="0.66845">
        <ele>230.2</ele>
        <time>2022-10-30T10:48:28Z</time>
      </trkpt>
      <trkpt lat="45.59008" lon="0.6684">
        <ele>230</ele>
        <time>2022-10-30T10:48:47Z</time>
      </trkpt>
      <trkpt lat="45.59006" lon="0.66843">
        <ele>230</ele>
        <time>2022-10-30T10:49:05Z</time>
      </trkpt>
      <trkpt lat="45.59006" lon="0.66841">
        <ele>229.8</ele>
        <time>2022-10-30T10:49:22Z</time>
      </trkpt>
      <trkpt lat="45.59007" lon="0.66843">
        <ele>229.4</ele>
        <time>2022-10-30T10:49:25Z</time>
      </trkpt>
      <trkpt lat="45.59009" lon="0.66851">
        <ele>229.2</ele>
        <time>2022-10-30T10:49:31Z</time>
      </trkpt>
      <trkpt lat="45.59012" lon="0.66856">
        <ele>229.2</ele>
        <time>2022-10-30T10:49:34Z</time>
      </trkpt>
      <trkpt lat="45.59012" lon="0.66859">
        <ele>229.2</ele>
        <time>2022-10-30T10:49:36Z</time>
      </trkpt>
      <trkpt lat="45.59012" lon="0.66861">
        <ele>229.2</ele>
        <time>2022-10-30T10:49:38Z</time>
      </trkpt>
      <trkpt lat="45.59013" lon="0.66863">
        <ele>229</ele>
        <time>2022-10-30T10:49:40Z</time>
      </trkpt>
      <trkpt lat="45.59013" lon="0.66868">
        <ele>228.8</ele>
        <time>2022-10-30T10:49:44Z</time>
      </trkpt>
      <trkpt lat="45.59013" lon="0.66871">
        <ele>228.6</ele>
        <time>2022-10-30T10:49:46Z</time>
      </trkpt>
      <trkpt lat="45.59013" lon="0.66873">
        <ele>228.6</ele>
        <time>2022-10-30T10:49:47Z</time>
      </trkpt>
      <trkpt lat="45.59013" lon="0.66875">
        <ele>228.6</ele>
        <time>2022-10-30T10:49:49Z</time>
      </trkpt>
      <trkpt lat="45.59014" lon="0.66878">
        <ele>228.2</ele>
        <time>2022-10-30T10:49:51Z</time>
      </trkpt>
      <trkpt lat="45.59015" lon="0.66881">
        <ele>227.8</ele>
        <time>2022-10-30T10:49:54Z</time>
      </trkpt>
      <trkpt lat="45.59015" lon="0.66882">
        <ele>227.6</ele>
        <time>2022-10-30T10:49:55Z</time>
      </trkpt>
      <trkpt lat="45.59016" lon="0.66884">
        <ele>227.2</ele>
        <time>2022-10-30T10:49:57Z</time>
      </trkpt>
      <trkpt lat="45.59017" lon="0.66886">
        <ele>226.8</ele>
        <time>2022-10-30T10:49:59Z</time>
      </trkpt>
      <trkpt lat="45.59017" lon="0.66892">
        <ele>226.4</ele>
        <time>2022-10-30T10:50:03Z</time>
      </trkpt>
      <trkpt lat="45.59017" lon="0.66895">
        <ele>226</ele>
        <time>2022-10-30T10:50:05Z</time>
      </trkpt>
      <trkpt lat="45.59017" lon="0.669">
        <ele>225.2</ele>
        <time>2022-10-30T10:50:09Z</time>
      </trkpt>
      <trkpt lat="45.59015" lon="0.66902">
        <ele>225</ele>
        <time>2022-10-30T10:50:12Z</time>
      </trkpt>
      <trkpt lat="45.59013" lon="0.66905">
        <ele>224.8</ele>
        <time>2022-10-30T10:50:15Z</time>
      </trkpt>
      <trkpt lat="45.59013" lon="0.66906">
        <ele>224.8</ele>
        <time>2022-10-30T10:50:16Z</time>
      </trkpt>
      <trkpt lat="45.59012" lon="0.66909">
        <ele>224.6</ele>
        <time>2022-10-30T10:50:19Z</time>
      </trkpt>
      <trkpt lat="45.59011" lon="0.66913">
        <ele>224.6</ele>
        <time>2022-10-30T10:50:23Z</time>
      </trkpt>
      <trkpt lat="45.59011" lon="0.66913">
        <ele>224.6</ele>
        <time>2022-10-30T10:50:24Z</time>
      </trkpt>
      <trkpt lat="45.59012" lon="0.66914">
        <ele>224.2</ele>
        <time>2022-10-30T10:50:26Z</time>
      </trkpt>
      <trkpt lat="45.59013" lon="0.66914">
        <ele>224.2</ele>
        <time>2022-10-30T10:50:29Z</time>
      </trkpt>
      <trkpt lat="45.59014" lon="0.66914">
        <ele>224</ele>
        <time>2022-10-30T10:50:31Z</time>
      </trkpt>
      <trkpt lat="45.5902" lon="0.66914">
        <ele>223.8</ele>
        <time>2022-10-30T10:50:42Z</time>
      </trkpt>
      <trkpt lat="45.59022" lon="0.66914">
        <ele>223.8</ele>
        <time>2022-10-30T10:50:44Z</time>
      </trkpt>
      <trkpt lat="45.59028" lon="0.66913">
        <ele>223.8</ele>
        <time>2022-10-30T10:50:49Z</time>
      </trkpt>
      <trkpt lat="45.59032" lon="0.66911">
        <ele>224</ele>
        <time>2022-10-30T10:50:53Z</time>
      </trkpt>
      <trkpt lat="45.59036" lon="0.66911">
        <ele>224</ele>
        <time>2022-10-30T10:50:57Z</time>
      </trkpt>
      <trkpt lat="45.59037" lon="0.6691">
        <ele>224</ele>
        <time>2022-10-30T10:51:00Z</time>
      </trkpt>
      <trkpt lat="45.59037" lon="0.6691">
        <ele>224</ele>
        <time>2022-10-30T10:51:03Z</time>
      </trkpt>
      <trkpt lat="45.59035" lon="0.66909">
        <ele>224.4</ele>
        <time>2022-10-30T10:51:07Z</time>
      </trkpt>
      <trkpt lat="45.59027" lon="0.66913">
        <ele>224</ele>
        <time>2022-10-30T10:51:16Z</time>
      </trkpt>
      <trkpt lat="45.59024" lon="0.66915">
        <ele>224</ele>
        <time>2022-10-30T10:51:19Z</time>
      </trkpt>
      <trkpt lat="45.59022" lon="0.66916">
        <ele>224</ele>
        <time>2022-10-30T10:51:21Z</time>
      </trkpt>
      <trkpt lat="45.59018" lon="0.66916">
        <ele>224.2</ele>
        <time>2022-10-30T10:51:25Z</time>
      </trkpt>
      <trkpt lat="45.59017" lon="0.66916">
        <ele>224.2</ele>
        <time>2022-10-30T10:51:26Z</time>
      </trkpt>
      <trkpt lat="45.59015" lon="0.66916">
        <ele>224.4</ele>
        <time>2022-10-30T10:51:29Z</time>
      </trkpt>
      <trkpt lat="45.59012" lon="0.66919">
        <ele>224.4</ele>
        <time>2022-10-30T10:51:32Z</time>
      </trkpt>
      <trkpt lat="45.59011" lon="0.66921">
        <ele>224.4</ele>
        <time>2022-10-30T10:51:33Z</time>
      </trkpt>
      <trkpt lat="45.5901" lon="0.66922">
        <ele>224.4</ele>
        <time>2022-10-30T10:51:34Z</time>
      </trkpt>
      <trkpt lat="45.5901" lon="0.66925">
        <ele>224.4</ele>
        <time>2022-10-30T10:51:37Z</time>
      </trkpt>
      <trkpt lat="45.59012" lon="0.66927">
        <ele>224.2</ele>
        <time>2022-10-30T10:51:42Z</time>
      </trkpt>
      <trkpt lat="45.59017" lon="0.66931">
        <ele>224.4</ele>
        <time>2022-10-30T10:51:48Z</time>
      </trkpt>
      <trkpt lat="45.59019" lon="0.66933">
        <ele>224.6</ele>
        <time>2022-10-30T10:51:51Z</time>
      </trkpt>
      <trkpt lat="45.5902" lon="0.66933">
        <ele>224.8</ele>
        <time>2022-10-30T10:51:52Z</time>
      </trkpt>
      <trkpt lat="45.59021" lon="0.66932">
        <ele>224.8</ele>
        <time>2022-10-30T10:51:53Z</time>
      </trkpt>
      <trkpt lat="45.59022" lon="0.66932">
        <ele>225</ele>
        <time>2022-10-30T10:51:54Z</time>
      </trkpt>
      <trkpt lat="45.59026" lon="0.6693">
        <ele>225.4</ele>
        <time>2022-10-30T10:51:57Z</time>
      </trkpt>
      <trkpt lat="45.59029" lon="0.66926">
        <ele>225.8</ele>
        <time>2022-10-30T10:52:01Z</time>
      </trkpt>
      <trkpt lat="45.59032" lon="0.66924">
        <ele>226</ele>
        <time>2022-10-30T10:52:03Z</time>
      </trkpt>
      <trkpt lat="45.59043" lon="0.66918">
        <ele>226.2</ele>
        <time>2022-10-30T10:52:13Z</time>
      </trkpt>
      <trkpt lat="45.59055" lon="0.66909">
        <ele>225.8</ele>
        <time>2022-10-30T10:52:25Z</time>
      </trkpt>
      <trkpt lat="45.59069" lon="0.66902">
        <ele>225.4</ele>
        <time>2022-10-30T10:52:38Z</time>
      </trkpt>
      <trkpt lat="45.59086" lon="0.66894">
        <ele>225.4</ele>
        <time>2022-10-30T10:52:53Z</time>
      </trkpt>
      <trkpt lat="45.59089" lon="0.66894">
        <ele>225.4</ele>
        <time>2022-10-30T10:52:55Z</time>
      </trkpt>
      <trkpt lat="45.59095" lon="0.66893">
        <ele>225</ele>
        <time>2022-10-30T10:53:03Z</time>
      </trkpt>
      <trkpt lat="45.59096" lon="0.66894">
        <ele>224.8</ele>
        <time>2022-10-30T10:53:06Z</time>
      </trkpt>
      <trkpt lat="45.59098" lon="0.6689">
        <ele>224.6</ele>
        <time>2022-10-30T10:53:21Z</time>
      </trkpt>
      <trkpt lat="45.59107" lon="0.66887">
        <ele>224.6</ele>
        <time>2022-10-30T10:53:33Z</time>
      </trkpt>
      <trkpt lat="45.59108" lon="0.66887">
        <ele>224.6</ele>
        <time>2022-10-30T10:53:34Z</time>
      </trkpt>
      <trkpt lat="45.59116" lon="0.66889">
        <ele>225.6</ele>
        <time>2022-10-30T10:53:45Z</time>
      </trkpt>
      <trkpt lat="45.59126" lon="0.669">
        <ele>225.8</ele>
        <time>2022-10-30T10:53:58Z</time>
      </trkpt>
      <trkpt lat="45.59127" lon="0.66901">
        <ele>225.8</ele>
        <time>2022-10-30T10:53:59Z</time>
      </trkpt>
      <trkpt lat="45.5913" lon="0.66905">
        <ele>226</ele>
        <time>2022-10-30T10:54:01Z</time>
      </trkpt>
      <trkpt lat="45.59135" lon="0.66918">
        <ele>226.8</ele>
        <time>2022-10-30T10:54:10Z</time>
      </trkpt>
      <trkpt lat="45.59136" lon="0.66921">
        <ele>227</ele>
        <time>2022-10-30T10:54:12Z</time>
      </trkpt>
      <trkpt lat="45.59141" lon="0.66929">
        <ele>227.4</ele>
        <time>2022-10-30T10:54:20Z</time>
      </trkpt>
      <trkpt lat="45.59142" lon="0.66931">
        <ele>227.4</ele>
        <time>2022-10-30T10:54:22Z</time>
      </trkpt>
      <trkpt lat="45.59143" lon="0.66932">
        <ele>227.4</ele>
        <time>2022-10-30T10:54:23Z</time>
      </trkpt>
      <trkpt lat="45.59144" lon="0.66934">
        <ele>227.4</ele>
        <time>2022-10-30T10:54:25Z</time>
      </trkpt>
      <trkpt lat="45.59145" lon="0.66936">
        <ele>227.2</ele>
        <time>2022-10-30T10:54:27Z</time>
      </trkpt>
      <trkpt lat="45.59147" lon="0.66939">
        <ele>227.8</ele>
        <time>2022-10-30T10:54:31Z</time>
      </trkpt>
    </trkseg>
  </trk>
</gpx>